Observation data for Fritch on 07/05/2020      Previous  Date  Next       Current Mesonet Observations  Soil Data  Daily Summary Page  Observations in Plain Language
KFR1 050500Z 23004KT 25/18 A3005 RMK A01 T02470183  RH  068%=      5-min Rain = 0
KFR1 050501Z 24005KT 25/18 A3005 RMK A01 T02470183  RH  068%=      5-min Rain = 0
KFR1 050502Z 24006KT 25/18 A3006 RMK A01 T02460182  RH  068%=      5-min Rain = 0
KFR1 050503Z 25006KT 25/18 A3006 RMK A01 T02460182  RH  068%=      5-min Rain = 0
KFR1 050504Z 26008KT 25/18 A3007 RMK A01 T02460183  RH  068%=      5-min Rain = 0
KFR1 050505Z 27011KT 25/18 A3008 RMK A01 T02460183  RH  068%=      5-min Rain = 0
KFR1 050506Z 26013KT 25/19 A3008 RMK A01 T02470185  RH  068%=      5-min Rain = 0
KFR1 050507Z 27015G21KT 25/19 A3009 RMK A01 T02470188  RH  070%=      5-min Rain = 0
KFR1 050508Z 27014KT 25/19 A3009 RMK A01 T02470189  RH  070%=      5-min Rain = 0
KFR1 050509Z 28023G30KT 25/18 A3009 RMK A01 T02490184  RH  067%=      5-min Rain = 0
KFR1 050510Z 29021G27KT 25/17 A3009 RMK A01 T02450172  RH  064%=      5-min Rain = 0
KFR1 050511Z 29023G28KT 24/17 A3009 RMK A01 T02400170  RH  065%=      5-min Rain = 0
KFR1 050512Z 29021G26KT 24/17 A3009 RMK A01 T02360169  RH  066%=      5-min Rain = 0
KFR1 050513Z 29020G28KT 23/17 A3009 RMK A01 T02340170  RH  067%=      5-min Rain = 0
KFR1 050514Z 29018G24KT 23/17 A301 RMK A01 T02340172  RH  068%=      5-min Rain = 0
KFR1 050515Z 29016G22KT 23/17 A301 RMK A01 T02330174  RH  069%=      5-min Rain = 0
KFR1 050516Z 29019G24KT 23/17 A301 RMK A01 T02320173  RH  069%=      5-min Rain = 0
KFR1 050517Z 29017G22KT 23/17 A301 RMK A01 T02320172  RH  069%=      5-min Rain = 0
KFR1 050518Z 29015G21KT 23/17 A301 RMK A01 T02310172  RH  069%=      5-min Rain = 0
KFR1 050519Z 28017G22KT 23/17 A301 RMK A01 T02310171  RH  069%=      5-min Rain = 0
KFR1 050520Z 28017G25KT 23/17 A3011 RMK A01 T02300172  RH  070%=      5-min Rain = 0
KFR1 050521Z 29016G24KT 23/17 A3011 RMK A01 T02300174  RH  071%=      5-min Rain = 0
KFR1 050522Z 29015G26KT 23/18 A3011 RMK A01 T02300176  RH  072%=      5-min Rain = 0
KFR1 050523Z 29018G27KT 23/18 A3011 RMK A01 T02290175  RH  071%=      5-min Rain = 0
KFR1 050524Z 28020G26KT 23/18 A3011 RMK A01 T02280175  RH  072%=      5-min Rain = 0
KFR1 050525Z 29015G20KT 23/18 A3011 RMK A01 T02270177  RH  074%=      5-min Rain = 0
KFR1 050526Z 29019G26KT 23/18 A3011 RMK A01 T02250180  RH  075%=      5-min Rain = 0
KFR1 050527Z 28021G27KT 22/18 A3011 RMK A01 T02230180  RH  076%=      5-min Rain = 0
KFR1 050528Z 28019KT 22/18 A3011 RMK A01 T02210179  RH  077%=      5-min Rain = 0
KFR1 050529Z 28013G19KT 22/18 A3011 RMK A01 T02190181  RH  079%=      5-min Rain = 0
KFR1 050530Z 29014KT 22/18 A3011 RMK A01 T02190183  RH  080%=      5-min Rain = 0
KFR1 050531Z 29015KT 22/18 A3011 RMK A01 T02180181  RH  079%=      5-min Rain = 0
KFR1 050532Z 29015KT 22/18 A3011 RMK A01 T02170181  RH  080%=      5-min Rain = 0
KFR1 050533Z 28014G22KT 22/18 A3011 RMK A01 T02160181  RH  080%=      5-min Rain = 0
KFR1 050534Z 28012G18KT 22/18 A3011 RMK A01 T02150183  RH  082%=      5-min Rain = 0
KFR1 050535Z 29013G18KT 21/18 A3012 RMK A01 T02140184  RH  083%=      5-min Rain = 0
KFR1 050536Z 29013G18KT 21/18 A3012 RMK A01 T02130182  RH  083%=      5-min Rain = 0
KFR1 050537Z 30011G17KT 21/18 A3012 RMK A01 T02130183  RH  083%=      5-min Rain = 0
KFR1 050538Z 30010G15KT 21/18 A3012 RMK A01 T02120184  RH  084%=      5-min Rain = 0
KFR1 050539Z 30010G16KT 21/18 A3012 RMK A01 T02110184  RH  084%=      5-min Rain = 0
KFR1 050540Z 29014G22KT 21/18 A3012 RMK A01 T02100184  RH  085%=      5-min Rain = 0
KFR1 050541Z 30015KT 21/18 A3012 RMK A01 T02090182  RH  084%=      5-min Rain = 0
KFR1 050542Z 29011G16KT 21/18 A3012 RMK A01 T02080182  RH  085%=      5-min Rain = 0
KFR1 050543Z 29014KT 21/18 A3012 RMK A01 T02080183  RH  086%=      5-min Rain = 0
KFR1 050544Z 29013G18KT 21/18 A3012 RMK A01 T02070183  RH  086%=      5-min Rain = 0
KFR1 050545Z 29010G15KT 21/18 A3012 RMK A01 T02070183  RH  086%=      5-min Rain = 0
KFR1 050546Z 29012G19KT 21/18 A3012 RMK A01 T02060184  RH  087%=      5-min Rain = 0
KFR1 050547Z 29014KT 21/18 A3012 RMK A01 T02060183  RH  086%=      5-min Rain = 0
KFR1 050548Z 29013G18KT 21/18 A3012 RMK A01 T02060182  RH  086%=      5-min Rain = 0
KFR1 050549Z 29013G19KT 21/18 A3012 RMK A01 T02060183  RH  086%=      5-min Rain = 0
KFR1 050550Z 29011G16KT 21/18 A3012 RMK A01 T02060183  RH  086%=      5-min Rain = 0
KFR1 050551Z 29011KT 21/18 A3012 RMK A01 T02070184  RH  087%=      5-min Rain = 0
KFR1 050552Z 29010KT 21/19 A3012 RMK A01 T02060185  RH  088%=      5-min Rain = 0
KFR1 050553Z 29013G18KT 21/18 A3012 RMK A01 T02060184  RH  087%=      5-min Rain = 0.01
KFR1 050554Z 29006G11KT 21/18 A3012 RMK A01 T02050184  RH  088%=      5-min Rain = 0.01
KFR1 050555Z 28010KT 20/19 A3012 RMK A01 T02040186  RH  089%=      5-min Rain = 0
KFR1 050556Z 27009KT 20/19 A3012 RMK A01 T02040187  RH  090%=      5-min Rain = 0.01
KFR1 050557Z 28010KT 20/19 A3012 RMK A01 T02030187  RH  091%=      5-min Rain = 0.01
KFR1 050558Z 28008G13KT 20/19 A3012 RMK A01 T02020188  RH  091%=      5-min Rain = 0
KFR1 050559Z 28012G18KT 20/19 A3012 RMK A01 T02020187  RH  091%=      5-min Rain = 0.01
KFR1 050600Z 29011KT 20/19 A3012 RMK A01 T02010185  RH  091%=      5-min Rain = 0
KFR1 050601Z 28009G14KT 20/19 A3012 RMK A01 T02010186  RH  091%=      5-min Rain = 0.01
KFR1 050602Z 28012G19KT 20/19 A3012 RMK A01 T02010187  RH  092%=      5-min Rain = 0
KFR1 050603Z 28012G19KT 20/19 A3012 RMK A01 T02000185  RH  091%=      5-min Rain = 0
KFR1 050604Z 28008KT 20/19 A3012 RMK A01 T02000186  RH  091%=      5-min Rain = 0
KFR1 050605Z 28011G20KT 20/19 A3013 RMK A01 T02000187  RH  092%=      5-min Rain = 0.01
KFR1 050606Z 28011G17KT 20/19 A3013 RMK A01 T02000185  RH  091%=      5-min Rain = 0
KFR1 050607Z 27010G15KT 20/19 A3013 RMK A01 T01990185  RH  091%=      5-min Rain = 0.01
KFR1 050608Z 28008G17KT 20/19 A3013 RMK A01 T01990185  RH  092%=      5-min Rain = 0
KFR1 050609Z 28008G15KT 20/19 A3013 RMK A01 T01990186  RH  092%=      5-min Rain = 0.01
KFR1 050610Z 26012KT 20/19 A3013 RMK A01 T01980185  RH  092%=      5-min Rain = 0.01
KFR1 050611Z 24008KT 20/18 A3013 RMK A01 T01980184  RH  092%=      5-min Rain = 0.01
KFR1 050612Z 24009KT 20/19 A3013 RMK A01 T01970186  RH  093%=      5-min Rain = 0.01
KFR1 050613Z 23009KT 20/19 A3013 RMK A01 T01970185  RH  093%=      5-min Rain = 0
KFR1 050614Z 22007KT 20/18 A3013 RMK A01 T01970184  RH  092%=      5-min Rain = 0.01
KFR1 050615Z 21007KT 20/18 A3013 RMK A01 T01960183  RH  092%=      5-min Rain = 0.01
KFR1 050616Z 23008KT 20/18 A3013 RMK A01 T01960183  RH  092%=      5-min Rain = 0
KFR1 050617Z 22006KT 20/18 A3013 RMK A01 T01960184  RH  093%=      5-min Rain = 0.01
KFR1 050618Z 26007KT 20/18 A3013 RMK A01 T01960184  RH  093%=      5-min Rain = 0
KFR1 050619Z 26008KT 20/18 A3013 RMK A01 T01950183  RH  093%=      5-min Rain = 0
KFR1 050620Z 25008KT 20/18 A3013 RMK A01 T01950183  RH  092%=      5-min Rain = 0.01
KFR1 050621Z 24009KT 20/18 A3013 RMK A01 T01950181  RH  092%=      5-min Rain = 0.01
KFR1 050622Z 24008KT 19/18 A3013 RMK A01 T01940179  RH  091%=      5-min Rain = 0.01
KFR1 050623Z 25008KT 19/18 A3013 RMK A01 T01940179  RH  091%=      5-min Rain = 0.01
KFR1 050624Z 25011KT 19/18 A3013 RMK A01 T01930179  RH  092%=      5-min Rain = 0
KFR1 050625Z 26009KT 19/18 A3013 RMK A01 T01920179  RH  092%=      5-min Rain = 0.01
KFR1 050626Z 26007KT 19/18 A3013 RMK A01 T01920179  RH  092%=      5-min Rain = 0.01
KFR1 050627Z 28007G12KT 19/18 A3013 RMK A01 T01920180  RH  093%=      5-min Rain = 0.01
KFR1 050628Z 27010KT 19/18 A3013 RMK A01 T01910180  RH  094%=      5-min Rain = 0.01
KFR1 050629Z 27009KT 19/18 A3013 RMK A01 T01910182  RH  094%=      5-min Rain = 0.01
KFR1 050630Z 27011KT 19/18 A3013 RMK A01 T01910180  RH  094%=      5-min Rain = 0.01
KFR1 050631Z 26010KT 19/18 A3013 RMK A01 T01900180  RH  094%=      5-min Rain = 0.02
KFR1 050632Z 28009KT 19/18 A3013 RMK A01 T01900180  RH  094%=      5-min Rain = 0.01
KFR1 050633Z 27012KT 19/18 A3013 RMK A01 T01900181  RH  094%=      5-min Rain = 0
KFR1 050634Z 27010KT 19/18 A3013 RMK A01 T01890179  RH  094%=      5-min Rain = 0.01
KFR1 050635Z 28008KT 19/18 A3013 RMK A01 T01890179  RH  094%=      5-min Rain = 0.01
KFR1 050636Z 29008KT 19/18 A3013 RMK A01 T01890180  RH  095%=      5-min Rain = 0.02
KFR1 050637Z 28010KT 19/18 A3013 RMK A01 T01890181  RH  095%=      5-min Rain = 0.01
KFR1 050638Z 27008KT 19/18 A3013 RMK A01 T01890182  RH  095%=      5-min Rain = 0.01
KFR1 050639Z 28008KT 19/18 A3013 RMK A01 T01900183  RH  096%=      5-min Rain = 0.02
KFR1 050640Z 29009KT 19/18 A3013 RMK A01 T01900184  RH  096%=      5-min Rain = 0.01
KFR1 050641Z 31010KT 19/18 A3013 RMK A01 T01900184  RH  096%=      5-min Rain = 0.01
KFR1 050642Z 32010KT 19/18 A3013 RMK A01 T01900184  RH  096%=      5-min Rain = 0.01
KFR1 050643Z 31008KT 19/18 A3013 RMK A01 T01900184  RH  096%=      5-min Rain = 0.01
KFR1 050644Z 31008KT 19/18 A3013 RMK A01 T01900184  RH  096%=      5-min Rain = 0
KFR1 050645Z 31009KT 19/18 A3013 RMK A01 T01910184  RH  096%=      5-min Rain = 0.01
KFR1 050646Z 33009KT 19/19 A3012 RMK A01 T01910185  RH  096%=      5-min Rain = 0
KFR1 050647Z 32011KT 19/19 A3012 RMK A01 T01910186  RH  096%=      5-min Rain = 0.01
KFR1 050648Z 32012KT 19/19 A3012 RMK A01 T01910185  RH  096%=      5-min Rain = 0.01
KFR1 050649Z 32011KT 19/19 A3012 RMK A01 T01910185  RH  096%=      5-min Rain = 0
KFR1 050650Z 31011KT 19/18 A3012 RMK A01 T01910184  RH  096%=      5-min Rain = 0.01
KFR1 050651Z 31010KT 19/18 A3012 RMK A01 T01900183  RH  095%=      5-min Rain = 0
KFR1 050652Z 31011KT 19/18 A3012 RMK A01 T01900182  RH  095%=      5-min Rain = 0.01
KFR1 050653Z 30008KT 19/18 A3012 RMK A01 T01910182  RH  095%=      5-min Rain = 0
KFR1 050654Z 31009KT 19/18 A3012 RMK A01 T01910182  RH  095%=      5-min Rain = 0
KFR1 050655Z 32011KT 19/18 A3012 RMK A01 T01920183  RH  094%=      5-min Rain = 0
KFR1 050656Z 31010KT 19/18 A3012 RMK A01 T01930182  RH  094%=      5-min Rain = 0
KFR1 050657Z 31009KT 19/18 A3012 RMK A01 T01930181  RH  092%=      5-min Rain = 0
KFR1 050658Z 31008KT 19/18 A3012 RMK A01 T01940181  RH  092%=      5-min Rain = 0.01
KFR1 050659Z 31006KT 19/18 A3012 RMK A01 T01940181  RH  092%=      5-min Rain = 0
KFR1 050700Z 30007KT 19/18 A3012 RMK A01 T01940180  RH  092%=      5-min Rain = 0
KFR1 050701Z 29004KT 19/18 A3012 RMK A01 T01940181  RH  092%=      5-min Rain = 0
KFR1 050702Z 30006KT 19/18 A3012 RMK A01 T01930181  RH  093%=      5-min Rain = 0.01
KFR1 050703Z 30006KT 19/18 A3011 RMK A01 T01930181  RH  093%=      5-min Rain = 0
KFR1 050704Z 30005KT 19/18 A3011 RMK A01 T01930181  RH  093%=      5-min Rain = 0
KFR1 050705Z 31005KT 19/18 A3011 RMK A01 T01930181  RH  093%=      5-min Rain = 0.01
KFR1 050706Z 30004KT 19/18 A3011 RMK A01 T01930180  RH  092%=      5-min Rain = 0
KFR1 050707Z 31006KT 19/18 A3011 RMK A01 T01930181  RH  093%=      5-min Rain = 0
KFR1 050708Z 32004KT 19/18 A3011 RMK A01 T01930181  RH  093%=      5-min Rain = 0
KFR1 050709Z 31004KT 19/18 A3011 RMK A01 T01930181  RH  093%=      5-min Rain = 0.01
KFR1 050710Z 29003KT 19/18 A3011 RMK A01 T01920181  RH  093%=      5-min Rain = 0
KFR1 050711Z 30003KT 19/18 A3011 RMK A01 T01920182  RH  094%=      5-min Rain = 0.01
KFR1 050712Z 31002KT 19/18 A3011 RMK A01 T01920181  RH  094%=      5-min Rain = 0
KFR1 050713Z 31003KT 19/18 A3011 RMK A01 T01920181  RH  094%=      5-min Rain = 0
KFR1 050714Z 30003KT 19/18 A3011 RMK A01 T01910180  RH  093%=      5-min Rain = 0.01
KFR1 050715Z 30003KT 19/18 A3011 RMK A01 T01910179  RH  093%=      5-min Rain = 0
KFR1 050716Z 32002KT 19/18 A3011 RMK A01 T01910179  RH  093%=      5-min Rain = 0
KFR1 050717Z 31002KT 19/18 A3011 RMK A01 T01910180  RH  093%=      5-min Rain = 0
KFR1 050718Z 29002KT 19/18 A3011 RMK A01 T01900179  RH  093%=      5-min Rain = 0.01
KFR1 050719Z 31000KT 19/18 A3011 RMK A01 T01910179  RH  093%=      5-min Rain = 0
KFR1 050720Z 00000KT 19/18 A3011 RMK A01 T01900180  RH  093%=      5-min Rain = 0
KFR1 050721Z 33001KT 19/18 A3011 RMK A01 T01900180  RH  094%=      5-min Rain = 0
KFR1 050722Z 36001KT 19/18 A3011 RMK A01 T01910180  RH  093%=      5-min Rain = 0.01
KFR1 050723Z 02000KT 19/18 A3011 RMK A01 T01910179  RH  093%=      5-min Rain = 0
KFR1 050724Z 00000KT 19/18 A3011 RMK A01 T01900179  RH  093%=      5-min Rain = 0
KFR1 050725Z 02001KT 19/18 A301 RMK A01 T01910179  RH  093%=      5-min Rain = 0.01
KFR1 050726Z 01002KT 19/18 A301 RMK A01 T01910179  RH  093%=      5-min Rain = 0
KFR1 050727Z 02003KT 19/18 A301 RMK A01 T01900179  RH  093%=      5-min Rain = 0
KFR1 050728Z 03003KT 19/18 A301 RMK A01 T01900179  RH  093%=      5-min Rain = 0
KFR1 050729Z 02003KT 19/18 A301 RMK A01 T01900179  RH  093%=      5-min Rain = 0.01
KFR1 050730Z 03004KT 19/18 A301 RMK A01 T01900180  RH  094%=      5-min Rain = 0
KFR1 050731Z 02004KT 19/18 A3009 RMK A01 T01910181  RH  094%=      5-min Rain = 0
KFR1 050732Z 03003KT 19/18 A3009 RMK A01 T01900180  RH  094%=      5-min Rain = 0
KFR1 050733Z 02003KT 19/18 A3009 RMK A01 T01900180  RH  094%=      5-min Rain = 0.01
KFR1 050734Z 02002KT 19/18 A3009 RMK A01 T01900181  RH  094%=      5-min Rain = 0
KFR1 050735Z 02004KT 19/18 A3009 RMK A01 T01900181  RH  094%=      5-min Rain = 0
KFR1 050736Z 03006KT 19/18 A3009 RMK A01 T01900181  RH  094%=      5-min Rain = 0
KFR1 050737Z 03004KT 19/18 A3009 RMK A01 T01890180  RH  094%=      5-min Rain = 0
KFR1 050738Z 04005KT 19/18 A3009 RMK A01 T01890180  RH  094%=      5-min Rain = 0
KFR1 050739Z 03007KT 19/18 A3008 RMK A01 T01900181  RH  094%=      5-min Rain = 0.01
KFR1 050740Z 03007KT 19/18 A3008 RMK A01 T01900180  RH  094%=      5-min Rain = 0
KFR1 050741Z 04009KT 19/18 A3008 RMK A01 T01900180  RH  094%=      5-min Rain = 0
KFR1 050742Z 04007KT 19/18 A3008 RMK A01 T01900180  RH  094%=      5-min Rain = 0
KFR1 050743Z 04006KT 19/18 A3008 RMK A01 T01900180  RH  094%=      5-min Rain = 0
KFR1 050744Z 04008KT 19/18 A3008 RMK A01 T01910181  RH  094%=      5-min Rain = 0
KFR1 050745Z 03007KT 19/18 A3009 RMK A01 T01900180  RH  094%=      5-min Rain = 0
KFR1 050746Z 02006KT 19/18 A3009 RMK A01 T01900179  RH  093%=      5-min Rain = 0
KFR1 050747Z 03004KT 19/18 A3009 RMK A01 T01900179  RH  093%=      5-min Rain = 0
KFR1 050748Z 04006KT 19/18 A3009 RMK A01 T01900179  RH  093%=      5-min Rain = 0
KFR1 050749Z 03007KT 19/18 A3009 RMK A01 T01900179  RH  093%=      5-min Rain = 0
KFR1 050750Z 04006KT 19/18 A3009 RMK A01 T01900179  RH  093%=      5-min Rain = 0.01
KFR1 050751Z 03007KT 19/18 A3009 RMK A01 T01910179  RH  093%=      5-min Rain = 0
KFR1 050752Z 02004KT 19/18 A3009 RMK A01 T01910180  RH  093%=      5-min Rain = 0
KFR1 050753Z 03007G13KT 19/18 A3009 RMK A01 T01910180  RH  093%=      5-min Rain = 0
KFR1 050754Z 03010KT 19/18 A3009 RMK A01 T01910179  RH  093%=      5-min Rain = 0
KFR1 050755Z 03006KT 19/18 A3009 RMK A01 T01910178  RH  092%=      5-min Rain = 0
KFR1 050756Z 02007KT 19/18 A301 RMK A01 T01920179  RH  092%=      5-min Rain = 0
KFR1 050757Z 04005KT 19/18 A301 RMK A01 T01920179  RH  092%=      5-min Rain = 0
KFR1 050758Z 03006KT 19/18 A301 RMK A01 T01920179  RH  092%=      5-min Rain = 0
KFR1 050759Z 04004KT 19/18 A301 RMK A01 T01920178  RH  091%=      5-min Rain = 0
KFR1 050800Z 03005KT 19/18 A301 RMK A01 T01920178  RH  092%=      5-min Rain = 0
KFR1 050801Z 03003KT 19/18 A301 RMK A01 T01920179  RH  092%=      5-min Rain = 0
KFR1 050802Z 05005KT 19/18 A301 RMK A01 T01920179  RH  092%=      5-min Rain = 0
KFR1 050803Z 04005KT 19/18 A301 RMK A01 T01920177  RH  091%=      5-min Rain = 0
KFR1 050804Z 04005KT 19/18 A3009 RMK A01 T01920177  RH  091%=      5-min Rain = 0
KFR1 050805Z 04006KT 19/18 A3009 RMK A01 T01930178  RH  091%=      5-min Rain = 0
KFR1 050806Z 03007KT 19/18 A3009 RMK A01 T01930177  RH  090%=      5-min Rain = 0
KFR1 050807Z 04004KT 19/18 A3009 RMK A01 T01930176  RH  090%=      5-min Rain = 0
KFR1 050808Z 04005KT 19/18 A3009 RMK A01 T01930178  RH  091%=      5-min Rain = 0
KFR1 050809Z 04006KT 19/18 A3009 RMK A01 T01930177  RH  090%=      5-min Rain = 0
KFR1 050810Z 05007KT 19/18 A3009 RMK A01 T01930176  RH  090%=      5-min Rain = 0
KFR1 050811Z 06007KT 19/18 A3009 RMK A01 T01930175  RH  089%=      5-min Rain = 0
KFR1 050812Z 06006KT 19/18 A3009 RMK A01 T01940176  RH  089%=      5-min Rain = 0
KFR1 050813Z 05006KT 19/18 A3008 RMK A01 T01940176  RH  090%=      5-min Rain = 0
KFR1 050814Z 06004KT 19/18 A3008 RMK A01 T01940178  RH  090%=      5-min Rain = 0
KFR1 050815Z 05005KT 19/18 A3008 RMK A01 T01930177  RH  090%=      5-min Rain = 0
KFR1 050816Z 06004KT 19/18 A3009 RMK A01 T01930176  RH  090%=      5-min Rain = 0
KFR1 050817Z 04003KT 19/18 A3009 RMK A01 T01930176  RH  090%=      5-min Rain = 0
KFR1 050818Z 05003KT 19/18 A3009 RMK A01 T01930176  RH  090%=      5-min Rain = 0
KFR1 050819Z 04003KT 19/18 A3009 RMK A01 T01930176  RH  090%=      5-min Rain = 0
KFR1 050820Z 06003KT 19/17 A301 RMK A01 T01930174  RH  089%=      5-min Rain = 0
KFR1 050821Z 06002KT 19/17 A301 RMK A01 T01940173  RH  087%=      5-min Rain = 0
KFR1 050822Z 10002KT 20/17 A301 RMK A01 T01950174  RH  088%=      5-min Rain = 0
KFR1 050823Z 10002KT 20/18 A3009 RMK A01 T01950175  RH  088%=      5-min Rain = 0
KFR1 050824Z 11002KT 20/18 A301 RMK A01 T01950175  RH  088%=      5-min Rain = 0
KFR1 050825Z 17001KT 20/18 A301 RMK A01 T01950176  RH  089%=      5-min Rain = 0
KFR1 050826Z 20002KT 20/18 A301 RMK A01 T01950177  RH  090%=      5-min Rain = 0
KFR1 050827Z 22002KT 20/18 A301 RMK A01 T01950179  RH  090%=      5-min Rain = 0
KFR1 050828Z 23002KT 20/18 A301 RMK A01 T01950179  RH  090%=      5-min Rain = 0
KFR1 050829Z 23002KT 20/18 A301 RMK A01 T01950178  RH  090%=      5-min Rain = 0
KFR1 050830Z 21002KT 20/18 A301 RMK A01 T01950179  RH  090%=      5-min Rain = 0
KFR1 050831Z 16002KT 20/18 A301 RMK A01 T01950180  RH  091%=      5-min Rain = 0
KFR1 050832Z 17002KT 20/18 A301 RMK A01 T01950180  RH  091%=      5-min Rain = 0
KFR1 050833Z 18003KT 20/18 A301 RMK A01 T01950180  RH  091%=      5-min Rain = 0
KFR1 050834Z 17003KT 19/18 A301 RMK A01 T01940180  RH  091%=      5-min Rain = 0
KFR1 050835Z 16003KT 19/18 A301 RMK A01 T01940180  RH  091%=      5-min Rain = 0
KFR1 050836Z 15003KT 19/18 A3009 RMK A01 T01940178  RH  091%=      5-min Rain = 0
KFR1 050837Z 14003KT 19/18 A3009 RMK A01 T01940175  RH  089%=      5-min Rain = 0
KFR1 050838Z 16004KT 19/18 A3009 RMK A01 T01940175  RH  089%=      5-min Rain = 0
KFR1 050839Z 17004KT 19/18 A3009 RMK A01 T01940177  RH  090%=      5-min Rain = 0
KFR1 050840Z 17005KT 19/18 A3009 RMK A01 T01940179  RH  091%=      5-min Rain = 0
KFR1 050841Z 17005KT 19/18 A3009 RMK A01 T01940179  RH  091%=      5-min Rain = 0
KFR1 050842Z 17004KT 19/18 A3009 RMK A01 T01940179  RH  091%=      5-min Rain = 0
KFR1 050843Z 17004KT 19/18 A3009 RMK A01 T01940180  RH  092%=      5-min Rain = 0
KFR1 050844Z 16004KT 19/18 A3009 RMK A01 T01940181  RH  092%=      5-min Rain = 0
KFR1 050845Z 16005KT 19/18 A3009 RMK A01 T01930179  RH  092%=      5-min Rain = 0
KFR1 050846Z 17005KT 19/18 A3008 RMK A01 T01930179  RH  091%=      5-min Rain = 0
KFR1 050847Z 17006KT 19/18 A3008 RMK A01 T01930179  RH  092%=      5-min Rain = 0
KFR1 050848Z 18006KT 19/18 A3008 RMK A01 T01930180  RH  092%=      5-min Rain = 0
KFR1 050849Z 18006KT 19/18 A3008 RMK A01 T01930181  RH  093%=      5-min Rain = 0
KFR1 050850Z 18006KT 19/18 A3008 RMK A01 T01930181  RH  093%=      5-min Rain = 0
KFR1 050851Z 18006KT 19/18 A3008 RMK A01 T01930181  RH  093%=      5-min Rain = 0
KFR1 050852Z 18006KT 19/18 A3008 RMK A01 T01920181  RH  093%=      5-min Rain = 0
KFR1 050853Z 19006KT 19/18 A3008 RMK A01 T01920181  RH  093%=      5-min Rain = 0
KFR1 050854Z 19005KT 19/18 A3008 RMK A01 T01920181  RH  093%=      5-min Rain = 0
KFR1 050855Z 19005KT 19/18 A3008 RMK A01 T01930182  RH  093%=      5-min Rain = 0
KFR1 050856Z 19005KT 19/18 A3008 RMK A01 T01920180  RH  093%=      5-min Rain = 0
KFR1 050857Z 18005KT 19/18 A3008 RMK A01 T01920180  RH  092%=      5-min Rain = 0
KFR1 050858Z 18005KT 19/18 A3008 RMK A01 T01930180  RH  092%=      5-min Rain = 0
KFR1 050859Z 19004KT 19/18 A3008 RMK A01 T01930180  RH  092%=      5-min Rain = 0
KFR1 050900Z 18003KT 19/18 A3008 RMK A01 T01930180  RH  092%=      5-min Rain = 0
KFR1 050901Z 19002KT 19/18 A3008 RMK A01 T01930180  RH  092%=      5-min Rain = 0
KFR1 050902Z 22003KT 19/18 A3008 RMK A01 T01930180  RH  092%=      5-min Rain = 0
KFR1 050903Z 23003KT 19/18 A3009 RMK A01 T01930180  RH  092%=      5-min Rain = 0
KFR1 050904Z 24004KT 19/18 A3009 RMK A01 T01930180  RH  092%=      5-min Rain = 0
KFR1 050905Z 24005KT 19/18 A3009 RMK A01 T01930180  RH  092%=      5-min Rain = 0
KFR1 050906Z 24005KT 19/18 A3009 RMK A01 T01930181  RH  093%=      5-min Rain = 0
KFR1 050907Z 23005KT 19/18 A3008 RMK A01 T01930182  RH  093%=      5-min Rain = 0
KFR1 050908Z 22006KT 19/18 A3008 RMK A01 T01930182  RH  093%=      5-min Rain = 0
KFR1 050909Z 22006KT 19/18 A3008 RMK A01 T01930182  RH  093%=      5-min Rain = 0
KFR1 050910Z 21006KT 19/18 A3008 RMK A01 T01940183  RH  093%=      5-min Rain = 0
KFR1 050911Z 22006KT 19/18 A3008 RMK A01 T01940182  RH  093%=      5-min Rain = 0
KFR1 050912Z 22006KT 19/18 A3008 RMK A01 T01940182  RH  093%=      5-min Rain = 0
KFR1 050913Z 22006KT 19/18 A3008 RMK A01 T01940181  RH  093%=      5-min Rain = 0
KFR1 050914Z 23007KT 19/18 A3008 RMK A01 T01940183  RH  093%=      5-min Rain = 0
KFR1 050915Z 23007KT 19/18 A3008 RMK A01 T01940184  RH  094%=      5-min Rain = 0
KFR1 050916Z 23006KT 19/18 A3008 RMK A01 T01940184  RH  094%=      5-min Rain = 0
KFR1 050917Z 23005KT 19/18 A3008 RMK A01 T01940183  RH  094%=      5-min Rain = 0
KFR1 050918Z 22006KT 19/18 A3008 RMK A01 T01940183  RH  094%=      5-min Rain = 0
KFR1 050919Z 23006KT 19/18 A3008 RMK A01 T01930183  RH  093%=      5-min Rain = 0
KFR1 050920Z 22008KT 19/18 A3008 RMK A01 T01930183  RH  094%=      5-min Rain = 0
KFR1 050921Z 22006KT 19/18 A3007 RMK A01 T01930183  RH  094%=      5-min Rain = 0
KFR1 050922Z 23006KT 19/18 A3007 RMK A01 T01930184  RH  094%=      5-min Rain = 0
KFR1 050923Z 22005KT 19/18 A3007 RMK A01 T01930184  RH  094%=      5-min Rain = 0
KFR1 050924Z 23007KT 19/18 A3007 RMK A01 T01930184  RH  094%=      5-min Rain = 0
KFR1 050925Z 23006KT 19/18 A3007 RMK A01 T01930184  RH  094%=      5-min Rain = 0
KFR1 050926Z 23006KT 19/18 A3007 RMK A01 T01930184  RH  095%=      5-min Rain = 0
KFR1 050927Z 23007KT 19/18 A3007 RMK A01 T01920184  RH  095%=      5-min Rain = 0
KFR1 050928Z 23007KT 19/18 A3007 RMK A01 T01920183  RH  094%=      5-min Rain = 0
KFR1 050929Z 22006KT 19/18 A3007 RMK A01 T01920183  RH  094%=      5-min Rain = 0
KFR1 050930Z 21006KT 19/18 A3007 RMK A01 T01920183  RH  095%=      5-min Rain = 0
KFR1 050931Z 23004KT 19/18 A3007 RMK A01 T01920183  RH  095%=      5-min Rain = 0
KFR1 050932Z 23005KT 19/18 A3007 RMK A01 T01920183  RH  095%=      5-min Rain = 0
KFR1 050933Z 24005KT 19/18 A3007 RMK A01 T01920183  RH  095%=      5-min Rain = 0
KFR1 050934Z 23006KT 19/18 A3007 RMK A01 T01910182  RH  094%=      5-min Rain = 0
KFR1 050935Z 22005KT 19/18 A3007 RMK A01 T01910182  RH  094%=      5-min Rain = 0
KFR1 050936Z 23005KT 19/18 A3007 RMK A01 T01910183  RH  095%=      5-min Rain = 0
KFR1 050937Z 23004KT 19/18 A3007 RMK A01 T01910183  RH  095%=      5-min Rain = 0
KFR1 050938Z 23006KT 19/18 A3007 RMK A01 T01910183  RH  095%=      5-min Rain = 0
KFR1 050939Z 22005KT 19/18 A3007 RMK A01 T01920184  RH  095%=      5-min Rain = 0
KFR1 050940Z 22005KT 19/18 A3007 RMK A01 T01910183  RH  095%=      5-min Rain = 0
KFR1 050941Z 22004KT 19/18 A3007 RMK A01 T01910183  RH  095%=      5-min Rain = 0
KFR1 050942Z 21005KT 19/18 A3007 RMK A01 T01910183  RH  095%=      5-min Rain = 0
KFR1 050943Z 22006KT 19/18 A3006 RMK A01 T01910183  RH  095%=      5-min Rain = 0
KFR1 050944Z 21006KT 19/18 A3006 RMK A01 T01910182  RH  095%=      5-min Rain = 0
KFR1 050945Z 21005KT 19/18 A3006 RMK A01 T01910183  RH  095%=      5-min Rain = 0
KFR1 050946Z 21005KT 19/18 A3006 RMK A01 T01910183  RH  095%=      5-min Rain = 0.01
KFR1 050947Z 21006KT 19/18 A3006 RMK A01 T01910183  RH  095%=      5-min Rain = 0
KFR1 050948Z 20007KT 19/18 A3005 RMK A01 T01910183  RH  095%=      5-min Rain = 0
KFR1 050949Z 21006KT 19/18 A3005 RMK A01 T01910183  RH  095%=      5-min Rain = 0
KFR1 050950Z 21008KT 19/18 A3005 RMK A01 T01910183  RH  095%=      5-min Rain = 0
KFR1 050951Z 21008KT 19/18 A3005 RMK A01 T01910183  RH  095%=      5-min Rain = 0
KFR1 050952Z 21008KT 19/18 A3005 RMK A01 T01900182  RH  095%=      5-min Rain = 0
KFR1 050953Z 21008KT 19/18 A3005 RMK A01 T01900182  RH  095%=      5-min Rain = 0
KFR1 050954Z 22007KT 19/18 A3005 RMK A01 T01910182  RH  095%=      5-min Rain = 0
KFR1 050955Z 21006KT 19/18 A3005 RMK A01 T01910182  RH  095%=      5-min Rain = 0
KFR1 050956Z 21006KT 19/18 A3005 RMK A01 T01910182  RH  095%=      5-min Rain = 0
KFR1 050957Z 21006KT 19/18 A3005 RMK A01 T01900182  RH  095%=      5-min Rain = 0
KFR1 050958Z 22006KT 19/18 A3005 RMK A01 T01910182  RH  095%=      5-min Rain = 0
KFR1 050959Z 22007KT 19/18 A3005 RMK A01 T01910182  RH  095%=      5-min Rain = 0
KFR1 051000Z 22007KT 19/18 A3005 RMK A01 T01910182  RH  095%=      5-min Rain = 0
KFR1 051001Z 22006KT 19/18 A3005 RMK A01 T01910182  RH  095%=      5-min Rain = 0
KFR1 051002Z 22007KT 19/18 A3005 RMK A01 T01900182  RH  095%=      5-min Rain = 0
KFR1 051003Z 22007KT 19/18 A3005 RMK A01 T01900182  RH  095%=      5-min Rain = 0
KFR1 051004Z 22007KT 19/18 A3005 RMK A01 T01910181  RH  094%=      5-min Rain = 0
KFR1 051005Z 22006KT 19/18 A3005 RMK A01 T01910182  RH  095%=      5-min Rain = 0
KFR1 051006Z 22008KT 19/18 A3005 RMK A01 T01910182  RH  095%=      5-min Rain = 0
KFR1 051007Z 23008KT 19/18 A3005 RMK A01 T01910182  RH  094%=      5-min Rain = 0
KFR1 051008Z 22006KT 19/18 A3005 RMK A01 T01910181  RH  094%=      5-min Rain = 0
KFR1 051009Z 22007KT 19/18 A3005 RMK A01 T01910182  RH  094%=      5-min Rain = 0
KFR1 051010Z 22008KT 19/18 A3005 RMK A01 T01910181  RH  094%=      5-min Rain = 0
KFR1 051011Z 22008KT 19/18 A3005 RMK A01 T01910181  RH  094%=      5-min Rain = 0
KFR1 051012Z 22008KT 19/18 A3005 RMK A01 T01910181  RH  094%=      5-min Rain = 0
KFR1 051013Z 23009KT 19/18 A3005 RMK A01 T01910182  RH  094%=      5-min Rain = 0
KFR1 051014Z 22008KT 19/18 A3005 RMK A01 T01910181  RH  094%=      5-min Rain = 0
KFR1 051015Z 22007KT 19/18 A3005 RMK A01 T01910181  RH  094%=      5-min Rain = 0
KFR1 051016Z 22006KT 19/18 A3005 RMK A01 T01910182  RH  094%=      5-min Rain = 0
KFR1 051017Z 22007KT 19/18 A3005 RMK A01 T01910182  RH  094%=      5-min Rain = 0
KFR1 051018Z 23006KT 19/18 A3004 RMK A01 T01910182  RH  095%=      5-min Rain = 0
KFR1 051019Z 24007KT 19/18 A3005 RMK A01 T01910182  RH  095%=      5-min Rain = 0
KFR1 051020Z 24008KT 19/18 A3005 RMK A01 T01910182  RH  094%=      5-min Rain = 0
KFR1 051021Z 23008KT 19/18 A3005 RMK A01 T01910182  RH  095%=      5-min Rain = 0
KFR1 051022Z 24007KT 19/18 A3005 RMK A01 T01910182  RH  095%=      5-min Rain = 0
KFR1 051023Z 23007KT 19/18 A3005 RMK A01 T01900182  RH  095%=      5-min Rain = 0
KFR1 051024Z 24006KT 19/18 A3005 RMK A01 T01910182  RH  095%=      5-min Rain = 0
KFR1 051025Z 24006KT 19/18 A3005 RMK A01 T01900182  RH  095%=      5-min Rain = 0
KFR1 051026Z 23006KT 19/18 A3005 RMK A01 T01900182  RH  095%=      5-min Rain = 0
KFR1 051027Z 24007KT 19/18 A3004 RMK A01 T01900182  RH  095%=      5-min Rain = 0
KFR1 051028Z 24006KT 19/18 A3004 RMK A01 T01900181  RH  095%=      5-min Rain = 0
KFR1 051029Z 25006KT 19/18 A3004 RMK A01 T01900181  RH  095%=      5-min Rain = 0
KFR1 051030Z 24007KT 19/18 A3004 RMK A01 T01900182  RH  095%=      5-min Rain = 0
KFR1 051031Z 23006KT 19/18 A3004 RMK A01 T01890181  RH  095%=      5-min Rain = 0
KFR1 051032Z 23006KT 19/18 A3004 RMK A01 T01890181  RH  095%=      5-min Rain = 0
KFR1 051033Z 23006KT 19/18 A3004 RMK A01 T01890181  RH  095%=      5-min Rain = 0
KFR1 051034Z 23005KT 19/18 A3004 RMK A01 T01890181  RH  095%=      5-min Rain = 0
KFR1 051035Z 23004KT 19/18 A3004 RMK A01 T01890182  RH  095%=      5-min Rain = 0
KFR1 051036Z 23005KT 19/18 A3004 RMK A01 T01890182  RH  095%=      5-min Rain = 0
KFR1 051037Z 23005KT 19/18 A3004 RMK A01 T01890182  RH  095%=      5-min Rain = 0
KFR1 051038Z 24004KT 19/18 A3004 RMK A01 T01890181  RH  095%=      5-min Rain = 0
KFR1 051039Z 24005KT 19/18 A3004 RMK A01 T01890181  RH  095%=      5-min Rain = 0
KFR1 051040Z 23004KT 19/18 A3004 RMK A01 T01890180  RH  095%=      5-min Rain = 0
KFR1 051041Z 23006KT 19/18 A3004 RMK A01 T01890180  RH  095%=      5-min Rain = 0
KFR1 051042Z 22005KT 19/18 A3004 RMK A01 T01890179  RH  094%=      5-min Rain = 0
KFR1 051043Z 23006KT 19/18 A3004 RMK A01 T01890180  RH  094%=      5-min Rain = 0
KFR1 051044Z 22006KT 19/18 A3004 RMK A01 T01900180  RH  094%=      5-min Rain = 0
KFR1 051045Z 23006KT 19/18 A3004 RMK A01 T01890179  RH  094%=      5-min Rain = 0
KFR1 051046Z 23004KT 19/18 A3004 RMK A01 T01900178  RH  093%=      5-min Rain = 0
KFR1 051047Z 24004KT 19/18 A3004 RMK A01 T01900178  RH  093%=      5-min Rain = 0
KFR1 051048Z 24004KT 19/18 A3004 RMK A01 T01900177  RH  092%=      5-min Rain = 0
KFR1 051049Z 24005KT 19/18 A3004 RMK A01 T01900177  RH  092%=      5-min Rain = 0
KFR1 051050Z 23006KT 19/18 A3004 RMK A01 T01900177  RH  092%=      5-min Rain = 0
KFR1 051051Z 23007KT 19/18 A3004 RMK A01 T01900178  RH  093%=      5-min Rain = 0
KFR1 051052Z 23007KT 19/18 A3003 RMK A01 T01900179  RH  093%=      5-min Rain = 0
KFR1 051053Z 24006KT 19/18 A3003 RMK A01 T01900179  RH  093%=      5-min Rain = 0
KFR1 051054Z 23006KT 19/18 A3003 RMK A01 T01900178  RH  093%=      5-min Rain = 0
KFR1 051055Z 23006KT 19/18 A3003 RMK A01 T01900178  RH  092%=      5-min Rain = 0
KFR1 051056Z 23006KT 19/18 A3003 RMK A01 T01900178  RH  093%=      5-min Rain = 0
KFR1 051057Z 23005KT 19/18 A3003 RMK A01 T01900178  RH  093%=      5-min Rain = 0
KFR1 051058Z 23005KT 19/18 A3003 RMK A01 T01900178  RH  093%=      5-min Rain = 0
KFR1 051059Z 23005KT 19/18 A3003 RMK A01 T01900178  RH  093%=      5-min Rain = 0
KFR1 051100Z 22004KT 19/18 A3003 RMK A01 T01900178  RH  093%=      5-min Rain = 0
KFR1 051101Z 22004KT 19/18 A3003 RMK A01 T01900178  RH  093%=      5-min Rain = 0
KFR1 051102Z 22004KT 19/18 A3003 RMK A01 T01900178  RH  093%=      5-min Rain = 0
KFR1 051103Z 22003KT 19/18 A3003 RMK A01 T01900178  RH  093%=      5-min Rain = 0
KFR1 051104Z 23003KT 19/18 A3003 RMK A01 T01900178  RH  093%=      5-min Rain = 0
KFR1 051105Z 23003KT 19/18 A3003 RMK A01 T01890177  RH  093%=      5-min Rain = 0
KFR1 051106Z 22004KT 19/18 A3003 RMK A01 T01900178  RH  093%=      5-min Rain = 0
KFR1 051107Z 23003KT 19/18 A3003 RMK A01 T01900177  RH  093%=      5-min Rain = 0
KFR1 051108Z 23003KT 19/18 A3003 RMK A01 T01900177  RH  092%=      5-min Rain = 0
KFR1 051109Z 22003KT 19/18 A3003 RMK A01 T01900177  RH  093%=      5-min Rain = 0
KFR1 051110Z 21002KT 19/18 A3003 RMK A01 T01900177  RH  093%=      5-min Rain = 0
KFR1 051111Z 21001KT 19/18 A3003 RMK A01 T01900178  RH  093%=      5-min Rain = 0
KFR1 051112Z 00000KT 19/18 A3003 RMK A01 T01900178  RH  093%=      5-min Rain = 0
KFR1 051113Z 00000KT 19/18 A3003 RMK A01 T01890177  RH  093%=      5-min Rain = 0
KFR1 051114Z 04000KT 19/18 A3003 RMK A01 T01890177  RH  093%=      5-min Rain = 0
KFR1 051115Z 03001KT 19/18 A3003 RMK A01 T01890177  RH  093%=      5-min Rain = 0
KFR1 051116Z 03001KT 19/18 A3003 RMK A01 T01890177  RH  093%=      5-min Rain = 0
KFR1 051117Z 03002KT 19/18 A3003 RMK A01 T01890177  RH  093%=      5-min Rain = 0
KFR1 051118Z 02002KT 19/18 A3003 RMK A01 T01890177  RH  093%=      5-min Rain = 0
KFR1 051119Z 02002KT 19/18 A3003 RMK A01 T01880177  RH  093%=      5-min Rain = 0
KFR1 051120Z 03001KT 19/18 A3003 RMK A01 T01880177  RH  093%=      5-min Rain = 0
KFR1 051121Z 05001KT 19/18 A3003 RMK A01 T01880177  RH  093%=      5-min Rain = 0
KFR1 051122Z 05000KT 19/18 A3003 RMK A01 T01880177  RH  094%=      5-min Rain = 0
KFR1 051123Z 35001KT 19/18 A3003 RMK A01 T01870177  RH  094%=      5-min Rain = 0
KFR1 051124Z 35000KT 19/18 A3003 RMK A01 T01870177  RH  094%=      5-min Rain = 0
KFR1 051125Z 34001KT 19/18 A3003 RMK A01 T01870178  RH  094%=      5-min Rain = 0
KFR1 051126Z 35002KT 19/18 A3003 RMK A01 T01870178  RH  094%=      5-min Rain = 0
KFR1 051127Z 35003KT 19/18 A3003 RMK A01 T01870177  RH  094%=      5-min Rain = 0
KFR1 051128Z 01003KT 19/18 A3003 RMK A01 T01870178  RH  094%=      5-min Rain = 0
KFR1 051129Z 03003KT 19/18 A3003 RMK A01 T01880178  RH  094%=      5-min Rain = 0
KFR1 051130Z 04002KT 19/18 A3003 RMK A01 T01880178  RH  094%=      5-min Rain = 0
KFR1 051131Z 05002KT 19/18 A3004 RMK A01 T01880178  RH  094%=      5-min Rain = 0
KFR1 051132Z 07001KT 19/18 A3004 RMK A01 T01880178  RH  094%=      5-min Rain = 0
KFR1 051133Z 08001KT 19/18 A3004 RMK A01 T01880178  RH  094%=      5-min Rain = 0
KFR1 051134Z 08001KT 19/18 A3004 RMK A01 T01880178  RH  094%=      5-min Rain = 0
KFR1 051135Z 08001KT 19/18 A3004 RMK A01 T01880178  RH  094%=      5-min Rain = 0
KFR1 051136Z 07001KT 19/18 A3004 RMK A01 T01880178  RH  094%=      5-min Rain = 0
KFR1 051137Z 07001KT 19/18 A3004 RMK A01 T01880178  RH  094%=      5-min Rain = 0
KFR1 051138Z 06002KT 19/18 A3004 RMK A01 T01880177  RH  094%=      5-min Rain = 0
KFR1 051139Z 05002KT 19/18 A3004 RMK A01 T01880178  RH  094%=      5-min Rain = 0
KFR1 051140Z 06002KT 19/18 A3004 RMK A01 T01890178  RH  094%=      5-min Rain = 0
KFR1 051141Z 09001KT 19/18 A3004 RMK A01 T01890178  RH  094%=      5-min Rain = 0
KFR1 051142Z 12001KT 19/18 A3004 RMK A01 T01890179  RH  094%=      5-min Rain = 0
KFR1 051143Z 13001KT 19/18 A3004 RMK A01 T01900179  RH  094%=      5-min Rain = 0
KFR1 051144Z 13001KT 19/18 A3004 RMK A01 T01900179  RH  094%=      5-min Rain = 0
KFR1 051145Z 12001KT 19/18 A3004 RMK A01 T01900179  RH  094%=      5-min Rain = 0
KFR1 051146Z 12001KT 19/18 A3004 RMK A01 T01900180  RH  094%=      5-min Rain = 0
KFR1 051147Z 09001KT 19/18 A3004 RMK A01 T01900180  RH  094%=      5-min Rain = 0
KFR1 051148Z 07001KT 19/18 A3004 RMK A01 T01900180  RH  094%=      5-min Rain = 0
KFR1 051149Z 07001KT 19/18 A3004 RMK A01 T01890180  RH  094%=      5-min Rain = 0
KFR1 051150Z 09002KT 19/18 A3004 RMK A01 T01900180  RH  094%=      5-min Rain = 0
KFR1 051151Z 09001KT 19/18 A3004 RMK A01 T01900180  RH  094%=      5-min Rain = 0
KFR1 051152Z 09002KT 19/18 A3004 RMK A01 T01900181  RH  094%=      5-min Rain = 0
KFR1 051153Z 08002KT 19/18 A3004 RMK A01 T01900181  RH  094%=      5-min Rain = 0
KFR1 051154Z 07003KT 19/18 A3004 RMK A01 T01900181  RH  094%=      5-min Rain = 0
KFR1 051155Z 07003KT 19/18 A3004 RMK A01 T01900181  RH  095%=      5-min Rain = 0
KFR1 051156Z 07003KT 19/18 A3004 RMK A01 T01900181  RH  094%=      5-min Rain = 0
KFR1 051157Z 06003KT 19/18 A3004 RMK A01 T01900181  RH  094%=      5-min Rain = 0
KFR1 051158Z 07003KT 19/18 A3004 RMK A01 T01900180  RH  094%=      5-min Rain = 0
KFR1 051159Z 08003KT 19/18 A3004 RMK A01 T01900180  RH  094%=      5-min Rain = 0
KFR1 051200Z 09002KT 19/18 A3004 RMK A01 T01900181  RH  094%=      5-min Rain = 0
KFR1 051201Z 10002KT 19/18 A3004 RMK A01 T01900181  RH  094%=      5-min Rain = 0
KFR1 051202Z 11002KT 19/18 A3004 RMK A01 T01900181  RH  095%=      5-min Rain = 0
KFR1 051203Z 12002KT 19/18 A3004 RMK A01 T01900182  RH  095%=      5-min Rain = 0
KFR1 051204Z 10002KT 19/18 A3004 RMK A01 T01900182  RH  095%=      5-min Rain = 0
KFR1 051205Z 09002KT 19/18 A3004 RMK A01 T01900182  RH  095%=      5-min Rain = 0
KFR1 051206Z 09002KT 19/18 A3004 RMK A01 T01910182  RH  095%=      5-min Rain = 0
KFR1 051207Z 08002KT 19/18 A3004 RMK A01 T01900181  RH  094%=      5-min Rain = 0
KFR1 051208Z 08002KT 19/18 A3005 RMK A01 T01910181  RH  094%=      5-min Rain = 0
KFR1 051209Z 08002KT 19/18 A3005 RMK A01 T01910182  RH  094%=      5-min Rain = 0
KFR1 051210Z 08002KT 19/18 A3005 RMK A01 T01910182  RH  094%=      5-min Rain = 0
KFR1 051211Z 07003KT 19/18 A3005 RMK A01 T01910182  RH  094%=      5-min Rain = 0
KFR1 051212Z 06003KT 19/18 A3005 RMK A01 T01910182  RH  094%=      5-min Rain = 0
KFR1 051213Z 06003KT 19/18 A3005 RMK A01 T01910182  RH  094%=      5-min Rain = 0
KFR1 051214Z 06003KT 19/18 A3004 RMK A01 T01920182  RH  094%=      5-min Rain = 0
KFR1 051215Z 06003KT 19/18 A3004 RMK A01 T01920181  RH  093%=      5-min Rain = 0
KFR1 051216Z 06003KT 19/18 A3005 RMK A01 T01920182  RH  093%=      5-min Rain = 0
KFR1 051217Z 06002KT 19/18 A3005 RMK A01 T01930182  RH  094%=      5-min Rain = 0
KFR1 051218Z 06001KT 19/18 A3005 RMK A01 T01930183  RH  094%=      5-min Rain = 0
KFR1 051219Z 05001KT 19/18 A3005 RMK A01 T01930183  RH  094%=      5-min Rain = 0
KFR1 051220Z 06001KT 19/18 A3005 RMK A01 T01930183  RH  094%=      5-min Rain = 0
KFR1 051221Z 04001KT 19/18 A3005 RMK A01 T01930183  RH  094%=      5-min Rain = 0
KFR1 051222Z 03001KT 19/18 A3005 RMK A01 T01930183  RH  094%=      5-min Rain = 0
KFR1 051223Z 04002KT 19/18 A3005 RMK A01 T01930183  RH  094%=      5-min Rain = 0
KFR1 051224Z 04002KT 19/18 A3005 RMK A01 T01930183  RH  094%=      5-min Rain = 0
KFR1 051225Z 04001KT 19/18 A3005 RMK A01 T01930183  RH  094%=      5-min Rain = 0
KFR1 051226Z 04000KT 19/18 A3006 RMK A01 T01930183  RH  094%=      5-min Rain = 0
KFR1 051227Z 00000KT 19/18 A3006 RMK A01 T01920183  RH  094%=      5-min Rain = 0
KFR1 051228Z 04000KT 19/18 A3006 RMK A01 T01920183  RH  094%=      5-min Rain = 0
KFR1 051229Z 03001KT 19/18 A3006 RMK A01 T01930183  RH  094%=      5-min Rain = 0
KFR1 051230Z 01002KT 19/18 A3006 RMK A01 T01930183  RH  094%=      5-min Rain = 0
KFR1 051231Z 01002KT 19/18 A3006 RMK A01 T01930183  RH  094%=      5-min Rain = 0
KFR1 051232Z 02003KT 19/18 A3006 RMK A01 T01930183  RH  094%=      5-min Rain = 0
KFR1 051233Z 33003KT 19/18 A3006 RMK A01 T01930183  RH  094%=      5-min Rain = 0
KFR1 051234Z 33004KT 19/18 A3006 RMK A01 T01940182  RH  093%=      5-min Rain = 0
KFR1 051235Z 32003KT 19/18 A3006 RMK A01 T01940182  RH  093%=      5-min Rain = 0
KFR1 051236Z 34003KT 20/18 A3006 RMK A01 T01950183  RH  093%=      5-min Rain = 0
KFR1 051237Z 36002KT 20/18 A3006 RMK A01 T01950183  RH  093%=      5-min Rain = 0
KFR1 051238Z 35003KT 20/18 A3006 RMK A01 T01950183  RH  093%=      5-min Rain = 0
KFR1 051239Z 35004KT 20/18 A3006 RMK A01 T01950183  RH  093%=      5-min Rain = 0
KFR1 051240Z 34004KT 20/18 A3006 RMK A01 T01950184  RH  093%=      5-min Rain = 0
KFR1 051241Z 34004KT 20/18 A3006 RMK A01 T01950184  RH  093%=      5-min Rain = 0
KFR1 051242Z 35003KT 20/18 A3006 RMK A01 T01960184  RH  093%=      5-min Rain = 0
KFR1 051243Z 35004KT 20/18 A3006 RMK A01 T01950183  RH  092%=      5-min Rain = 0
KFR1 051244Z 34004KT 20/18 A3006 RMK A01 T01960181  RH  091%=      5-min Rain = 0
KFR1 051245Z 34004KT 20/18 A3006 RMK A01 T01960182  RH  091%=      5-min Rain = 0
KFR1 051246Z 35004KT 20/18 A3006 RMK A01 T01960182  RH  091%=      5-min Rain = 0
KFR1 051247Z 33004KT 20/18 A3006 RMK A01 T01960182  RH  091%=      5-min Rain = 0
KFR1 051248Z 33005KT 20/18 A3006 RMK A01 T01960182  RH  091%=      5-min Rain = 0
KFR1 051249Z 33003KT 20/18 A3006 RMK A01 T01960182  RH  091%=      5-min Rain = 0
KFR1 051250Z 32004KT 20/18 A3006 RMK A01 T01960182  RH  091%=      5-min Rain = 0
KFR1 051251Z 34004KT 20/18 A3006 RMK A01 T01960181  RH  091%=      5-min Rain = 0
KFR1 051252Z 33004KT 20/18 A3006 RMK A01 T01960182  RH  091%=      5-min Rain = 0
KFR1 051253Z 33004KT 20/18 A3006 RMK A01 T01960182  RH  091%=      5-min Rain = 0
KFR1 051254Z 33004KT 20/18 A3006 RMK A01 T01960182  RH  092%=      5-min Rain = 0
KFR1 051255Z 34004KT 20/18 A3006 RMK A01 T01970183  RH  092%=      5-min Rain = 0
KFR1 051256Z 34003KT 20/18 A3006 RMK A01 T01960183  RH  092%=      5-min Rain = 0
KFR1 051257Z 34004KT 20/18 A3006 RMK A01 T01960183  RH  092%=      5-min Rain = 0
KFR1 051258Z 34003KT 20/18 A3006 RMK A01 T01970184  RH  092%=      5-min Rain = 0
KFR1 051259Z 34003KT 20/18 A3006 RMK A01 T01960183  RH  092%=      5-min Rain = 0
KFR1 051300Z 35003KT 20/18 A3006 RMK A01 T01960184  RH  093%=      5-min Rain = 0
KFR1 051301Z 35003KT 20/18 A3006 RMK A01 T01960184  RH  093%=      5-min Rain = 0
KFR1 051302Z 35003KT 20/18 A3007 RMK A01 T01960184  RH  093%=      5-min Rain = 0
KFR1 051303Z 34004KT 20/18 A3007 RMK A01 T01960183  RH  092%=      5-min Rain = 0
KFR1 051304Z 35003KT 20/18 A3007 RMK A01 T01960184  RH  092%=      5-min Rain = 0
KFR1 051305Z 34002KT 20/19 A3007 RMK A01 T01970185  RH  093%=      5-min Rain = 0
KFR1 051306Z 35003KT 20/19 A3007 RMK A01 T01970185  RH  093%=      5-min Rain = 0
KFR1 051307Z 35003KT 20/19 A3007 RMK A01 T01970185  RH  093%=      5-min Rain = 0
KFR1 051308Z 00003KT 20/19 A3007 RMK A01 T01970185  RH  093%=      5-min Rain = 0
KFR1 051309Z 01004KT 20/18 A3007 RMK A01 T01970184  RH  092%=      5-min Rain = 0
KFR1 051310Z 36004KT 20/18 A3007 RMK A01 T01980184  RH  092%=      5-min Rain = 0
KFR1 051311Z 00004KT 20/19 A3007 RMK A01 T01980185  RH  092%=      5-min Rain = 0
KFR1 051312Z 01005KT 20/19 A3007 RMK A01 T01990185  RH  092%=      5-min Rain = 0
KFR1 051313Z 35005KT 20/18 A3007 RMK A01 T01990184  RH  091%=      5-min Rain = 0
KFR1 051314Z 36005KT 20/18 A3007 RMK A01 T01990183  RH  091%=      5-min Rain = 0
KFR1 051315Z 00005KT 20/18 A3007 RMK A01 T01990184  RH  091%=      5-min Rain = 0
KFR1 051316Z 36005KT 20/18 A3007 RMK A01 T01990183  RH  090%=      5-min Rain = 0
KFR1 051317Z 36005KT 20/18 A3007 RMK A01 T01990182  RH  090%=      5-min Rain = 0
KFR1 051318Z 36005KT 20/18 A3007 RMK A01 T01990182  RH  090%=      5-min Rain = 0
KFR1 051319Z 00004KT 20/18 A3007 RMK A01 T01990182  RH  090%=      5-min Rain = 0
KFR1 051320Z 01004KT 20/18 A3007 RMK A01 T01990182  RH  090%=      5-min Rain = 0
KFR1 051321Z 36005KT 20/18 A3007 RMK A01 T01990182  RH  090%=      5-min Rain = 0
KFR1 051322Z 36004KT 20/18 A3007 RMK A01 T01990183  RH  090%=      5-min Rain = 0
KFR1 051323Z 02004KT 20/18 A3007 RMK A01 T02000183  RH  090%=      5-min Rain = 0
KFR1 051324Z 00004KT 20/18 A3007 RMK A01 T02000183  RH  090%=      5-min Rain = 0
KFR1 051325Z 01004KT 20/18 A3007 RMK A01 T02000182  RH  090%=      5-min Rain = 0
KFR1 051326Z 02004KT 20/18 A3007 RMK A01 T02000184  RH  090%=      5-min Rain = 0
KFR1 051327Z 02004KT 20/19 A3007 RMK A01 T02000185  RH  091%=      5-min Rain = 0
KFR1 051328Z 02005KT 20/19 A3007 RMK A01 T02000185  RH  091%=      5-min Rain = 0
KFR1 051329Z 00004KT 20/18 A3007 RMK A01 T02010184  RH  090%=      5-min Rain = 0
KFR1 051330Z 02005KT 20/18 A3007 RMK A01 T02010183  RH  090%=      5-min Rain = 0
KFR1 051331Z 01004KT 20/18 A3007 RMK A01 T02010184  RH  090%=      5-min Rain = 0
KFR1 051332Z 00004KT 20/18 A3007 RMK A01 T02020184  RH  090%=      5-min Rain = 0
KFR1 051333Z 00005KT 20/18 A3008 RMK A01 T02020184  RH  090%=      5-min Rain = 0
KFR1 051334Z 01004KT 20/18 A3008 RMK A01 T02030183  RH  088%=      5-min Rain = 0
KFR1 051335Z 36004KT 20/19 A3008 RMK A01 T02040185  RH  089%=      5-min Rain = 0
KFR1 051336Z 01004KT 21/19 A3008 RMK A01 T02050186  RH  089%=      5-min Rain = 0
KFR1 051337Z 01005KT 21/19 A3008 RMK A01 T02050186  RH  089%=      5-min Rain = 0
KFR1 051338Z 01004KT 21/19 A3008 RMK A01 T02060186  RH  088%=      5-min Rain = 0
KFR1 051339Z 01003KT 21/19 A3008 RMK A01 T02070187  RH  089%=      5-min Rain = 0
KFR1 051340Z 02006KT 21/19 A3008 RMK A01 T02070188  RH  089%=      5-min Rain = 0
KFR1 051341Z 02007KT 21/19 A3008 RMK A01 T02080186  RH  087%=      5-min Rain = 0
KFR1 051342Z 02005KT 21/19 A3008 RMK A01 T02090185  RH  086%=      5-min Rain = 0
KFR1 051343Z 02005KT 21/19 A3008 RMK A01 T02090187  RH  087%=      5-min Rain = 0
KFR1 051344Z 01006KT 21/19 A3008 RMK A01 T02100186  RH  087%=      5-min Rain = 0
KFR1 051345Z 03006KT 21/19 A3008 RMK A01 T02100188  RH  087%=      5-min Rain = 0
KFR1 051346Z 02007KT 21/19 A3008 RMK A01 T02100188  RH  087%=      5-min Rain = 0
KFR1 051347Z 01006KT 21/19 A3008 RMK A01 T02090186  RH  086%=      5-min Rain = 0
KFR1 051348Z 01005KT 21/19 A3008 RMK A01 T02090186  RH  086%=      5-min Rain = 0
KFR1 051349Z 02006KT 21/19 A3008 RMK A01 T02090188  RH  088%=      5-min Rain = 0
KFR1 051350Z 02007KT 21/19 A3008 RMK A01 T02100186  RH  087%=      5-min Rain = 0
KFR1 051351Z 01007KT 21/19 A3008 RMK A01 T02110187  RH  086%=      5-min Rain = 0
KFR1 051352Z 02007KT 21/19 A3008 RMK A01 T02110186  RH  086%=      5-min Rain = 0
KFR1 051353Z 01006KT 21/19 A3008 RMK A01 T02120187  RH  085%=      5-min Rain = 0
KFR1 051354Z 02006KT 21/19 A3008 RMK A01 T02120188  RH  086%=      5-min Rain = 0
KFR1 051355Z 02006KT 21/19 A3008 RMK A01 T02130186  RH  085%=      5-min Rain = 0
KFR1 051356Z 01007KT 21/19 A3008 RMK A01 T02130186  RH  085%=      5-min Rain = 0
KFR1 051357Z 01007KT 21/18 A3008 RMK A01 T02130184  RH  083%=      5-min Rain = 0
KFR1 051358Z 03007KT 21/18 A3008 RMK A01 T02140184  RH  083%=      5-min Rain = 0
KFR1 051359Z 02009KT 22/18 A3008 RMK A01 T02150184  RH  083%=      5-min Rain = 0
KFR1 051400Z 03007KT 21/18 A3008 RMK A01 T02140182  RH  082%=      5-min Rain = 0
KFR1 051401Z 03007KT 21/18 A3008 RMK A01 T02130183  RH  083%=      5-min Rain = 0
KFR1 051402Z 03007KT 21/18 A3008 RMK A01 T02120181  RH  082%=      5-min Rain = 0
KFR1 051403Z 03008KT 21/18 A3008 RMK A01 T02110178  RH  082%=      5-min Rain = 0
KFR1 051404Z 03005KT 21/18 A3008 RMK A01 T02100179  RH  082%=      5-min Rain = 0
KFR1 051405Z 02006G11KT 21/18 A3008 RMK A01 T02100181  RH  083%=      5-min Rain = 0
KFR1 051406Z 02008KT 21/18 A3008 RMK A01 T02100178  RH  082%=      5-min Rain = 0
KFR1 051407Z 01007KT 21/18 A3008 RMK A01 T02090178  RH  082%=      5-min Rain = 0
KFR1 051408Z 02007KT 21/18 A3008 RMK A01 T02090180  RH  083%=      5-min Rain = 0
KFR1 051409Z 03008KT 21/18 A3008 RMK A01 T02100180  RH  083%=      5-min Rain = 0
KFR1 051410Z 02005KT 21/18 A3008 RMK A01 T02110181  RH  083%=      5-min Rain = 0
KFR1 051411Z 02006KT 21/18 A3008 RMK A01 T02120181  RH  083%=      5-min Rain = 0
KFR1 051412Z 03004KT 21/18 A3008 RMK A01 T02120182  RH  083%=      5-min Rain = 0
KFR1 051413Z 04004KT 21/18 A3008 RMK A01 T02130184  RH  084%=      5-min Rain = 0
KFR1 051414Z 03008KT 21/18 A3008 RMK A01 T02140183  RH  083%=      5-min Rain = 0
KFR1 051415Z 04007KT 21/18 A3008 RMK A01 T02140182  RH  082%=      5-min Rain = 0
KFR1 051416Z 03008KT 22/18 A3009 RMK A01 T02150182  RH  081%=      5-min Rain = 0
KFR1 051417Z 03008KT 22/18 A3009 RMK A01 T02160182  RH  081%=      5-min Rain = 0
KFR1 051418Z 01007KT 22/18 A3009 RMK A01 T02160182  RH  081%=      5-min Rain = 0
KFR1 051419Z 36006KT 22/18 A3009 RMK A01 T02170184  RH  082%=      5-min Rain = 0
KFR1 051420Z 01007KT 22/18 A3009 RMK A01 T02170183  RH  081%=      5-min Rain = 0
KFR1 051421Z 02006KT 22/19 A3009 RMK A01 T02180186  RH  082%=      5-min Rain = 0
KFR1 051422Z 02006KT 22/19 A3009 RMK A01 T02180185  RH  081%=      5-min Rain = 0
KFR1 051423Z 02007KT 22/18 A3009 RMK A01 T02180183  RH  080%=      5-min Rain = 0
KFR1 051424Z 02008KT 22/18 A3009 RMK A01 T02160180  RH  080%=      5-min Rain = 0
KFR1 051425Z 03005KT 21/18 A3009 RMK A01 T02140180  RH  081%=      5-min Rain = 0
KFR1 051426Z 02005KT 21/18 A3009 RMK A01 T02140184  RH  083%=      5-min Rain = 0
KFR1 051427Z 03005KT 21/18 A3009 RMK A01 T02140183  RH  082%=      5-min Rain = 0
KFR1 051428Z 03007KT 21/18 A3009 RMK A01 T02140183  RH  082%=      5-min Rain = 0
KFR1 051429Z 03007KT 21/18 A3009 RMK A01 T02140182  RH  082%=      5-min Rain = 0
KFR1 051430Z 03006KT 21/18 A3009 RMK A01 T02130182  RH  083%=      5-min Rain = 0
KFR1 051431Z 02007KT 21/18 A3009 RMK A01 T02130182  RH  082%=      5-min Rain = 0
KFR1 051432Z 03006KT 21/18 A3009 RMK A01 T02130180  RH  082%=      5-min Rain = 0
KFR1 051433Z 02007KT 21/18 A3009 RMK A01 T02120182  RH  083%=      5-min Rain = 0
KFR1 051434Z 01006KT 21/18 A3009 RMK A01 T02130181  RH  082%=      5-min Rain = 0
KFR1 051435Z 03006KT 21/18 A3009 RMK A01 T02130184  RH  083%=      5-min Rain = 0
KFR1 051436Z 03006KT 22/19 A3009 RMK A01 T02150187  RH  084%=      5-min Rain = 0
KFR1 051437Z 03007KT 22/18 A3009 RMK A01 T02150183  RH  082%=      5-min Rain = 0
KFR1 051438Z 02008KT 22/18 A3009 RMK A01 T02150183  RH  082%=      5-min Rain = 0
KFR1 051439Z 03007KT 22/18 A3009 RMK A01 T02150183  RH  082%=      5-min Rain = 0
KFR1 051440Z 04006KT 22/19 A3009 RMK A01 T02150186  RH  084%=      5-min Rain = 0
KFR1 051441Z 04008KT 22/19 A3009 RMK A01 T02170186  RH  083%=      5-min Rain = 0
KFR1 051442Z 04007KT 22/19 A3008 RMK A01 T02180187  RH  082%=      5-min Rain = 0
KFR1 051443Z 04009KT 22/18 A3008 RMK A01 T02190184  RH  080%=      5-min Rain = 0
KFR1 051444Z 04007KT 22/19 A3008 RMK A01 T02190185  RH  081%=      5-min Rain = 0
KFR1 051445Z 05010KT 22/19 A3008 RMK A01 T02200186  RH  081%=      5-min Rain = 0
KFR1 051446Z 04011KT 22/18 A3008 RMK A01 T02210183  RH  079%=      5-min Rain = 0
KFR1 051447Z 04010KT 22/18 A3008 RMK A01 T02200183  RH  080%=      5-min Rain = 0
KFR1 051448Z 04010KT 22/18 A3008 RMK A01 T02190184  RH  080%=      5-min Rain = 0
KFR1 051449Z 04010KT 22/18 A3008 RMK A01 T02190183  RH  080%=      5-min Rain = 0
KFR1 051450Z 04010KT 22/18 A3008 RMK A01 T02200184  RH  080%=      5-min Rain = 0
KFR1 051451Z 04007KT 22/19 A3008 RMK A01 T02200186  RH  081%=      5-min Rain = 0
KFR1 051452Z 04010KT 22/19 A3008 RMK A01 T02220187  RH  080%=      5-min Rain = 0
KFR1 051453Z 04010KT 22/18 A3008 RMK A01 T02230183  RH  078%=      5-min Rain = 0
KFR1 051454Z 04008KT 22/18 A3008 RMK A01 T02220183  RH  078%=      5-min Rain = 0
KFR1 051455Z 04010KT 22/19 A3008 RMK A01 T02230185  RH  079%=      5-min Rain = 0
KFR1 051456Z 05009KT 22/18 A3008 RMK A01 T02230184  RH  079%=      5-min Rain = 0
KFR1 051457Z 05011KT 22/18 A3008 RMK A01 T02230182  RH  078%=      5-min Rain = 0
KFR1 051458Z 04010KT 22/18 A3008 RMK A01 T02220184  RH  079%=      5-min Rain = 0
KFR1 051459Z 05010KT 22/18 A3008 RMK A01 T02230182  RH  078%=      5-min Rain = 0
KFR1 051500Z 03007KT 22/18 A3008 RMK A01 T02230183  RH  078%=      5-min Rain = 0
KFR1 051501Z 02007KT 23/18 A3008 RMK A01 T02250184  RH  078%=      5-min Rain = 0
KFR1 051502Z 03007KT 23/18 A3008 RMK A01 T02250183  RH  077%=      5-min Rain = 0
KFR1 051503Z 04007KT 23/19 A3008 RMK A01 T02260185  RH  078%=      5-min Rain = 0
KFR1 051504Z 03009KT 23/18 A3008 RMK A01 T02270182  RH  076%=      5-min Rain = 0
KFR1 051505Z 04007KT 23/18 A3008 RMK A01 T02280181  RH  075%=      5-min Rain = 0
KFR1 051506Z 04007KT 23/18 A3008 RMK A01 T02270183  RH  076%=      5-min Rain = 0
KFR1 051507Z 04009KT 23/18 A3008 RMK A01 T02270178  RH  074%=      5-min Rain = 0
KFR1 051508Z 04007KT 23/18 A3008 RMK A01 T02260181  RH  076%=      5-min Rain = 0
KFR1 051509Z 04006KT 23/18 A3008 RMK A01 T02270183  RH  076%=      5-min Rain = 0
KFR1 051510Z 04005KT 23/18 A3008 RMK A01 T02290183  RH  075%=      5-min Rain = 0
KFR1 051511Z 03006KT 23/18 A3008 RMK A01 T02310184  RH  075%=      5-min Rain = 0
KFR1 051512Z 04009KT 23/18 A3008 RMK A01 T02330180  RH  072%=      5-min Rain = 0
KFR1 051513Z 04006KT 23/18 A3008 RMK A01 T02320181  RH  073%=      5-min Rain = 0
KFR1 051514Z 03006KT 23/18 A3008 RMK A01 T02330184  RH  074%=      5-min Rain = 0
KFR1 051515Z 05008KT 23/18 A3008 RMK A01 T02340183  RH  073%=      5-min Rain = 0
KFR1 051516Z 05010KT 23/18 A3008 RMK A01 T02340181  RH  072%=      5-min Rain = 0
KFR1 051517Z 05010KT 23/18 A3008 RMK A01 T02330181  RH  073%=      5-min Rain = 0
KFR1 051518Z 05009KT 23/18 A3008 RMK A01 T02310178  RH  072%=      5-min Rain = 0
KFR1 051519Z 03007KT 23/18 A3008 RMK A01 T02310184  RH  075%=      5-min Rain = 0
KFR1 051520Z 04010KT 23/18 A3008 RMK A01 T02330181  RH  072%=      5-min Rain = 0
KFR1 051521Z 05007KT 23/18 A3008 RMK A01 T02330183  RH  073%=      5-min Rain = 0
KFR1 051522Z 06009KT 23/18 A3008 RMK A01 T02330184  RH  074%=      5-min Rain = 0
KFR1 051523Z 05009KT 23/18 A3008 RMK A01 T02320182  RH  073%=      5-min Rain = 0
KFR1 051524Z 06009KT 23/18 A3008 RMK A01 T02320183  RH  074%=      5-min Rain = 0
KFR1 051525Z 06011KT 23/18 A3008 RMK A01 T02310181  RH  073%=      5-min Rain = 0
KFR1 051526Z 06009KT 23/18 A3008 RMK A01 T02300181  RH  074%=      5-min Rain = 0
KFR1 051527Z 06011KT 23/18 A3008 RMK A01 T02300182  RH  074%=      5-min Rain = 0
KFR1 051528Z 07011KT 23/18 A3008 RMK A01 T02290180  RH  074%=      5-min Rain = 0
KFR1 051529Z 06010G15KT 23/18 A3008 RMK A01 T02280181  RH  075%=      5-min Rain = 0
KFR1 051530Z 06011KT 23/18 A3008 RMK A01 T02290179  RH  074%=      5-min Rain = 0
KFR1 051531Z 06010KT 23/18 A3008 RMK A01 T02290178  RH  073%=      5-min Rain = 0
KFR1 051532Z 05011KT 23/18 A3008 RMK A01 T02290176  RH  072%=      5-min Rain = 0
KFR1 051533Z 06009KT 23/18 A3008 RMK A01 T02290175  RH  072%=      5-min Rain = 0
KFR1 051534Z 06010KT 23/17 A3008 RMK A01 T02300174  RH  071%=      5-min Rain = 0
KFR1 051535Z 05010KT 23/17 A3008 RMK A01 T02300171  RH  069%=      5-min Rain = 0
KFR1 051536Z 04009KT 23/17 A3008 RMK A01 T02310173  RH  070%=      5-min Rain = 0
KFR1 051537Z 04011KT 23/17 A3008 RMK A01 T02320173  RH  070%=      5-min Rain = 0
KFR1 051538Z 05009KT 23/18 A3008 RMK A01 T02340175  RH  069%=      5-min Rain = 0
KFR1 051539Z 04010KT 24/17 A3008 RMK A01 T02350174  RH  068%=      5-min Rain = 0
KFR1 051540Z 04009KT 24/17 A3007 RMK A01 T02370173  RH  067%=      5-min Rain = 0
KFR1 051541Z 04011KT 24/17 A3007 RMK A01 T02380170  RH  065%=      5-min Rain = 0
KFR1 051542Z 03009KT 24/17 A3007 RMK A01 T02380167  RH  064%=      5-min Rain = 0
KFR1 051543Z 04010KT 24/17 A3007 RMK A01 T02400171  RH  065%=      5-min Rain = 0
KFR1 051544Z 03010KT 24/17 A3007 RMK A01 T02410168  RH  063%=      5-min Rain = 0
KFR1 051545Z 04007KT 24/17 A3007 RMK A01 T02410170  RH  065%=      5-min Rain = 0
KFR1 051546Z 02008KT 24/17 A3007 RMK A01 T02420171  RH  064%=      5-min Rain = 0
KFR1 051547Z 03007KT 24/17 A3007 RMK A01 T02430170  RH  063%=      5-min Rain = 0
KFR1 051548Z 04009KT 24/17 A3007 RMK A01 T02430168  RH  063%=      5-min Rain = 0
KFR1 051549Z 04007KT 24/17 A3007 RMK A01 T02440171  RH  064%=      5-min Rain = 0
KFR1 051550Z 05008KT 25/17 A3007 RMK A01 T02450169  RH  063%=      5-min Rain = 0
KFR1 051551Z 05008KT 25/17 A3007 RMK A01 T02450167  RH  062%=      5-min Rain = 0
KFR1 051552Z 04010KT 25/17 A3007 RMK A01 T02460165  RH  061%=      5-min Rain = 0
KFR1 051553Z 05012KT 25/17 A3007 RMK A01 T02460167  RH  062%=      5-min Rain = 0
KFR1 051554Z 04011KT 25/17 A3007 RMK A01 T02450165  RH  061%=      5-min Rain = 0
KFR1 051555Z 04010KT 24/17 A3007 RMK A01 T02430167  RH  062%=      5-min Rain = 0
KFR1 051556Z 04010KT 24/17 A3007 RMK A01 T02430169  RH  063%=      5-min Rain = 0
KFR1 051557Z 04011KT 24/17 A3007 RMK A01 T02430168  RH  063%=      5-min Rain = 0
KFR1 051558Z 04010KT 24/17 A3007 RMK A01 T02410167  RH  063%=      5-min Rain = 0
KFR1 051559Z 04009KT 24/17 A3008 RMK A01 T02410171  RH  065%=      5-min Rain = 0
KFR1 051600Z 03009KT 24/17 A3008 RMK A01 T02430171  RH  064%=      5-min Rain = 0
KFR1 051601Z 03009KT 24/17 A3008 RMK A01 T02440168  RH  063%=      5-min Rain = 0
KFR1 051602Z 03010KT 24/17 A3008 RMK A01 T02440171  RH  064%=      5-min Rain = 0
KFR1 051603Z 04011KT 24/17 A3008 RMK A01 T02440170  RH  064%=      5-min Rain = 0
KFR1 051604Z 05010KT 24/17 A3008 RMK A01 T02420168  RH  063%=      5-min Rain = 0
KFR1 051605Z 04009KT 24/17 A3008 RMK A01 T02400170  RH  065%=      5-min Rain = 0
KFR1 051606Z 04008KT 24/18 A3008 RMK A01 T02420175  RH  066%=      5-min Rain = 0
KFR1 051607Z 05008KT 25/18 A3008 RMK A01 T02460182  RH  068%=      5-min Rain = 0
KFR1 051608Z 06012KT 25/18 A3008 RMK A01 T02490177  RH  064%=      5-min Rain = 0
KFR1 051609Z 07012KT 25/17 A3008 RMK A01 T02450172  RH  064%=      5-min Rain = 0
KFR1 051610Z 06011KT 24/17 A3008 RMK A01 T02420173  RH  065%=      5-min Rain = 0
KFR1 051611Z 06012KT 24/17 A3008 RMK A01 T02420172  RH  065%=      5-min Rain = 0
KFR1 051612Z 05013KT 24/17 A3008 RMK A01 T02410171  RH  065%=      5-min Rain = 0
KFR1 051613Z 06011KT 24/18 A3008 RMK A01 T02410175  RH  067%=      5-min Rain = 0
KFR1 051614Z 04011KT 24/17 A3008 RMK A01 T02430173  RH  065%=      5-min Rain = 0
KFR1 051615Z 04011KT 24/17 A3008 RMK A01 T02430171  RH  064%=      5-min Rain = 0
KFR1 051616Z 07010KT 25/18 A3008 RMK A01 T02450176  RH  066%=      5-min Rain = 0
KFR1 051617Z 06010KT 25/17 A3008 RMK A01 T02470174  RH  064%=      5-min Rain = 0
KFR1 051618Z 05012KT 25/17 A3008 RMK A01 T02480172  RH  063%=      5-min Rain = 0
KFR1 051619Z 05012KT 25/17 A3008 RMK A01 T02450168  RH  062%=      5-min Rain = 0
KFR1 051620Z 05012KT 25/17 A3008 RMK A01 T02450169  RH  063%=      5-min Rain = 0
KFR1 051621Z 05012KT 25/17 A3008 RMK A01 T02450169  RH  062%=      5-min Rain = 0
KFR1 051622Z 05010KT 24/17 A3008 RMK A01 T02440170  RH  063%=      5-min Rain = 0
KFR1 051623Z 07011KT 24/17 A3008 RMK A01 T02430172  RH  064%=      5-min Rain = 0
KFR1 051624Z 07014KT 24/17 A3008 RMK A01 T02440169  RH  063%=      5-min Rain = 0
KFR1 051625Z 07011KT 24/16 A3008 RMK A01 T02420164  RH  061%=      5-min Rain = 0
KFR1 051626Z 06011KT 24/17 A3008 RMK A01 T02420171  RH  065%=      5-min Rain = 0
KFR1 051627Z 07012KT 24/17 A3008 RMK A01 T02430169  RH  063%=      5-min Rain = 0
KFR1 051628Z 08012KT 24/17 A3008 RMK A01 T02430169  RH  063%=      5-min Rain = 0
KFR1 051629Z 07014KT 24/17 A3008 RMK A01 T02440170  RH  063%=      5-min Rain = 0
KFR1 051630Z 08013KT 25/17 A3008 RMK A01 T02460171  RH  063%=      5-min Rain = 0
KFR1 051631Z 08011KT 25/17 A3008 RMK A01 T02470172  RH  063%=      5-min Rain = 0
KFR1 051632Z 07011KT 25/17 A3008 RMK A01 T02460170  RH  062%=      5-min Rain = 0
KFR1 051633Z 09009KT 25/17 A3008 RMK A01 T02460172  RH  064%=      5-min Rain = 0
KFR1 051634Z 05008KT 25/17 A3008 RMK A01 T02460174  RH  064%=      5-min Rain = 0
KFR1 051635Z 05008KT 25/17 A3008 RMK A01 T02470170  RH  062%=      5-min Rain = 0
KFR1 051636Z 08009KT 25/18 A3008 RMK A01 T02460175  RH  064%=      5-min Rain = 0
KFR1 051637Z 09011KT 25/18 A3008 RMK A01 T02500175  RH  063%=      5-min Rain = 0
KFR1 051638Z 09009KT 25/17 A3008 RMK A01 T02500170  RH  061%=      5-min Rain = 0
KFR1 051639Z 09011KT 25/17 A3008 RMK A01 T02490171  RH  062%=      5-min Rain = 0
KFR1 051640Z 08009KT 25/17 A3008 RMK A01 T02490170  RH  062%=      5-min Rain = 0
KFR1 051641Z 08007KT 25/17 A3008 RMK A01 T02480174  RH  063%=      5-min Rain = 0
KFR1 051642Z 08007KT 25/17 A3008 RMK A01 T02490170  RH  061%=      5-min Rain = 0
KFR1 051643Z 08008KT 25/17 A3008 RMK A01 T02490171  RH  062%=      5-min Rain = 0
KFR1 051644Z 09009KT 25/17 A3008 RMK A01 T02510171  RH  061%=      5-min Rain = 0
KFR1 051645Z 09011KT 26/18 A3008 RMK A01 T02550177  RH  062%=      5-min Rain = 0
KFR1 051646Z 09013KT 26/17 A3008 RMK A01 T02550167  RH  058%=      5-min Rain = 0
KFR1 051647Z 10013KT 25/17 A3008 RMK A01 T02500165  RH  059%=      5-min Rain = 0
KFR1 051648Z 10011KT 25/17 A3008 RMK A01 T02490166  RH  060%=      5-min Rain = 0
KFR1 051649Z 09012KT 25/17 A3009 RMK A01 T02490165  RH  059%=      5-min Rain = 0
KFR1 051650Z 11009KT 25/16 A3009 RMK A01 T02470162  RH  059%=      5-min Rain = 0
KFR1 051651Z 11010KT 25/16 A3009 RMK A01 T02480163  RH  059%=      5-min Rain = 0
KFR1 051652Z 10012KT 25/17 A3009 RMK A01 T02500165  RH  059%=      5-min Rain = 0
KFR1 051653Z 09011KT 25/16 A3009 RMK A01 T02510163  RH  058%=      5-min Rain = 0
KFR1 051654Z 08009KT 25/16 A3009 RMK A01 T02490161  RH  058%=      5-min Rain = 0
KFR1 051655Z 08008KT 25/17 A3009 RMK A01 T02470166  RH  061%=      5-min Rain = 0
KFR1 051656Z 07008KT 25/17 A3009 RMK A01 T02490167  RH  060%=      5-min Rain = 0
KFR1 051657Z 08011KT 25/17 A3009 RMK A01 T02520172  RH  061%=      5-min Rain = 0
KFR1 051658Z 07012KT 25/16 A3009 RMK A01 T02530164  RH  058%=      5-min Rain = 0
KFR1 051659Z 07009KT 25/16 A3009 RMK A01 T02480158  RH  057%=      5-min Rain = 0
KFR1 051700Z 08007KT 25/17 A3009 RMK A01 T02470165  RH  061%=      5-min Rain = 0
KFR1 051701Z 07008KT 25/17 A3009 RMK A01 T02510170  RH  061%=      5-min Rain = 0
KFR1 051702Z 06008KT 25/16 A3009 RMK A01 T02500164  RH  059%=      5-min Rain = 0
KFR1 051703Z 06007KT 25/17 A3009 RMK A01 T02470166  RH  061%=      5-min Rain = 0
KFR1 051704Z 05006KT 25/17 A3009 RMK A01 T02470170  RH  062%=      5-min Rain = 0
KFR1 051705Z 09006KT 25/17 A3009 RMK A01 T02480170  RH  062%=      5-min Rain = 0
KFR1 051706Z 09008KT 25/17 A3009 RMK A01 T02500172  RH  062%=      5-min Rain = 0
KFR1 051707Z 09009KT 25/17 A3009 RMK A01 T02500173  RH  062%=      5-min Rain = 0
KFR1 051708Z 11008KT 25/17 A3009 RMK A01 T02510172  RH  061%=      5-min Rain = 0
KFR1 051709Z 11009KT 25/17 A3009 RMK A01 T02520173  RH  062%=      5-min Rain = 0
KFR1 051710Z 07007KT 25/18 A3009 RMK A01 T02540178  RH  063%=      5-min Rain = 0
KFR1 051711Z 08008KT 26/17 A3009 RMK A01 T02570174  RH  060%=      5-min Rain = 0
KFR1 051712Z 09009KT 26/17 A3009 RMK A01 T02550169  RH  059%=      5-min Rain = 0
KFR1 051713Z 08010KT 25/17 A3008 RMK A01 T02520168  RH  059%=      5-min Rain = 0
KFR1 051714Z 09009KT 25/17 A3008 RMK A01 T02520168  RH  060%=      5-min Rain = 0
KFR1 051715Z 06006KT 25/17 A3008 RMK A01 T02510168  RH  060%=      5-min Rain = 0
KFR1 051716Z 05008KT 25/17 A3008 RMK A01 T02520169  RH  060%=      5-min Rain = 0
KFR1 051717Z 07007KT 25/17 A3008 RMK A01 T02520165  RH  058%=      5-min Rain = 0
KFR1 051718Z 09007KT 25/17 A3008 RMK A01 T02510167  RH  060%=      5-min Rain = 0
KFR1 051719Z 08009KT 25/17 A3008 RMK A01 T02520169  RH  060%=      5-min Rain = 0
KFR1 051720Z 09007KT 25/17 A3008 RMK A01 T02520165  RH  058%=      5-min Rain = 0
KFR1 051721Z 08007KT 25/17 A3008 RMK A01 T02510167  RH  059%=      5-min Rain = 0
KFR1 051722Z 08009KT 25/17 A3008 RMK A01 T02510166  RH  059%=      5-min Rain = 0
KFR1 051723Z 09007KT 25/17 A3008 RMK A01 T02500169  RH  060%=      5-min Rain = 0
KFR1 051724Z 08005KT 25/17 A3008 RMK A01 T02510170  RH  061%=      5-min Rain = 0
KFR1 051725Z 08009KT 25/17 A3008 RMK A01 T02510169  RH  061%=      5-min Rain = 0
KFR1 051726Z 08008KT 25/17 A3008 RMK A01 T02520169  RH  060%=      5-min Rain = 0
KFR1 051727Z 07008KT 25/17 A3008 RMK A01 T02510166  RH  059%=      5-min Rain = 0
KFR1 051728Z 07009KT 25/17 A3008 RMK A01 T02500167  RH  060%=      5-min Rain = 0
KFR1 051729Z 08008KT 25/17 A3008 RMK A01 T02490168  RH  061%=      5-min Rain = 0
KFR1 051730Z 08006KT 25/17 A3008 RMK A01 T02510169  RH  060%=      5-min Rain = 0
KFR1 051731Z 09007KT 25/17 A3008 RMK A01 T02510170  RH  061%=      5-min Rain = 0
KFR1 051732Z 08007KT 25/17 A3008 RMK A01 T02520171  RH  061%=      5-min Rain = 0
KFR1 051733Z 10007KT 25/17 A3008 RMK A01 T02540172  RH  060%=      5-min Rain = 0
KFR1 051734Z 12006KT 26/16 A3008 RMK A01 T02550164  RH  057%=      5-min Rain = 0
KFR1 051735Z 08005KT 26/17 A3008 RMK A01 T02550167  RH  058%=      5-min Rain = 0
KFR1 051736Z 09007KT 25/17 A3008 RMK A01 T02540168  RH  059%=      5-min Rain = 0
KFR1 051737Z 10007KT 26/17 A3008 RMK A01 T02560170  RH  059%=      5-min Rain = 0
KFR1 051738Z 09006KT 26/17 A3008 RMK A01 T02570170  RH  059%=      5-min Rain = 0
KFR1 051739Z 08010KT 26/17 A3008 RMK A01 T02580172  RH  059%=      5-min Rain = 0
KFR1 051740Z 07007KT 26/17 A3008 RMK A01 T02580169  RH  058%=      5-min Rain = 0
KFR1 051741Z 05006KT 26/17 A3008 RMK A01 T02570167  RH  057%=      5-min Rain = 0
KFR1 051742Z 07006KT 26/17 A3007 RMK A01 T02560166  RH  058%=      5-min Rain = 0
KFR1 051743Z 08004KT 26/17 A3007 RMK A01 T02560167  RH  058%=      5-min Rain = 0
KFR1 051744Z 07007KT 26/17 A3007 RMK A01 T02570174  RH  060%=      5-min Rain = 0
KFR1 051745Z 05007KT 26/17 A3007 RMK A01 T02580169  RH  058%=      5-min Rain = 0
KFR1 051746Z 05007KT 26/17 A3007 RMK A01 T02600170  RH  058%=      5-min Rain = 0
KFR1 051747Z 05007KT 26/17 A3007 RMK A01 T02610170  RH  057%=      5-min Rain = 0
KFR1 051748Z 06006KT 26/17 A3007 RMK A01 T02620173  RH  058%=      5-min Rain = 0
KFR1 051749Z 06006KT 26/17 A3007 RMK A01 T02630170  RH  057%=      5-min Rain = 0
KFR1 051750Z 06008KT 26/17 A3007 RMK A01 T02620168  RH  056%=      5-min Rain = 0
KFR1 051751Z 07008KT 26/17 A3007 RMK A01 T02600168  RH  057%=      5-min Rain = 0
KFR1 051752Z 08007KT 26/17 A3007 RMK A01 T02590169  RH  058%=      5-min Rain = 0
KFR1 051753Z 08006KT 26/17 A3007 RMK A01 T02590170  RH  058%=      5-min Rain = 0
KFR1 051754Z 07004KT 26/17 A3007 RMK A01 T02600170  RH  058%=      5-min Rain = 0
KFR1 051755Z 08005KT 26/17 A3007 RMK A01 T02610173  RH  058%=      5-min Rain = 0
KFR1 051756Z 09006KT 26/17 A3007 RMK A01 T02630173  RH  058%=      5-min Rain = 0
KFR1 051757Z 08004KT 26/17 A3007 RMK A01 T02640173  RH  057%=      5-min Rain = 0
KFR1 051758Z 09004KT 26/17 A3007 RMK A01 T02640170  RH  056%=      5-min Rain = 0
KFR1 051759Z 10008KT 26/18 A3007 RMK A01 T02630175  RH  058%=      5-min Rain = 0
KFR1 051800Z 10007KT 26/17 A3007 RMK A01 T02640174  RH  058%=      5-min Rain = 0
KFR1 051801Z 09004KT 26/17 A3007 RMK A01 T02640171  RH  057%=      5-min Rain = 0
KFR1 051802Z 11003KT 26/18 A3007 RMK A01 T02630178  RH  060%=      5-min Rain = 0
KFR1 051803Z 12006G11KT 27/18 A3007 RMK A01 T02660177  RH  058%=      5-min Rain = 0
KFR1 051804Z 13008KT 27/17 A3007 RMK A01 T02680169  RH  055%=      5-min Rain = 0
KFR1 051805Z 13005KT 27/17 A3007 RMK A01 T02650171  RH  056%=      5-min Rain = 0
KFR1 051806Z 13005G10KT 27/17 A3007 RMK A01 T02660172  RH  056%=      5-min Rain = 0
KFR1 051807Z 12010KT 27/17 A3007 RMK A01 T02670168  RH  055%=      5-min Rain = 0
KFR1 051808Z 09009KT 27/17 A3007 RMK A01 T02660171  RH  056%=      5-min Rain = 0
KFR1 051809Z 09009KT 27/18 A3007 RMK A01 T02680177  RH  057%=      5-min Rain = 0
KFR1 051810Z 10006KT 27/17 A3007 RMK A01 T02680174  RH  056%=      5-min Rain = 0
KFR1 051811Z 11007KT 27/18 A3007 RMK A01 T02690175  RH  056%=      5-min Rain = 0
KFR1 051812Z 10006KT 27/18 A3007 RMK A01 T02710178  RH  057%=      5-min Rain = 0
KFR1 051813Z 11005KT 27/18 A3007 RMK A01 T02720179  RH  057%=      5-min Rain = 0
KFR1 051814Z 14005KT 27/17 A3007 RMK A01 T02720168  RH  053%=      5-min Rain = 0
KFR1 051815Z 14004KT 27/18 A3007 RMK A01 T02710175  RH  056%=      5-min Rain = 0
KFR1 051816Z 11004KT 27/17 A3007 RMK A01 T02720169  RH  053%=      5-min Rain = 0
KFR1 051817Z 08006KT 27/17 A3006 RMK A01 T02710171  RH  054%=      5-min Rain = 0
KFR1 051818Z 08007KT 27/17 A3006 RMK A01 T02690171  RH  055%=      5-min Rain = 0
KFR1 051819Z 09008KT 27/17 A3006 RMK A01 T02690174  RH  056%=      5-min Rain = 0
KFR1 051820Z 12009KT 27/17 A3006 RMK A01 T02690172  RH  055%=      5-min Rain = 0
KFR1 051821Z 11003KT 27/17 A3006 RMK A01 T02680168  RH  054%=      5-min Rain = 0
KFR1 051822Z 15004KT 27/17 A3006 RMK A01 T02670171  RH  056%=      5-min Rain = 0
KFR1 051823Z 15002KT 27/17 A3006 RMK A01 T02680174  RH  056%=      5-min Rain = 0
KFR1 051824Z 10006KT 27/17 A3006 RMK A01 T02700172  RH  055%=      5-min Rain = 0
KFR1 051825Z 12007KT 27/17 A3006 RMK A01 T02720174  RH  055%=      5-min Rain = 0
KFR1 051826Z 12005KT 27/17 A3006 RMK A01 T02700169  RH  054%=      5-min Rain = 0
KFR1 051827Z 07005KT 27/17 A3006 RMK A01 T02680170  RH  055%=      5-min Rain = 0
KFR1 051828Z 06005KT 27/17 A3006 RMK A01 T02680171  RH  055%=      5-min Rain = 0
KFR1 051829Z 05004KT 27/17 A3006 RMK A01 T02680170  RH  055%=      5-min Rain = 0
KFR1 051830Z 04002KT 27/17 A3006 RMK A01 T02670168  RH  054%=      5-min Rain = 0
KFR1 051831Z 09002KT 27/17 A3006 RMK A01 T02680171  RH  055%=      5-min Rain = 0
KFR1 051832Z 09005KT 27/18 A3006 RMK A01 T02700175  RH  056%=      5-min Rain = 0
KFR1 051833Z 09006KT 27/18 A3006 RMK A01 T02730175  RH  055%=      5-min Rain = 0
KFR1 051834Z 10008KT 27/17 A3006 RMK A01 T02740171  RH  053%=      5-min Rain = 0
KFR1 051835Z 10009KT 27/17 A3006 RMK A01 T02740169  RH  053%=      5-min Rain = 0
KFR1 051836Z 09008KT 27/17 A3006 RMK A01 T02740169  RH  053%=      5-min Rain = 0
KFR1 051837Z 09007KT 27/17 A3006 RMK A01 T02740168  RH  053%=      5-min Rain = 0
KFR1 051838Z 05004KT 27/17 A3006 RMK A01 T02720165  RH  052%=      5-min Rain = 0
KFR1 051839Z 08004KT 27/17 A3006 RMK A01 T02700167  RH  053%=      5-min Rain = 0
KFR1 051840Z 08008KT 27/17 A3006 RMK A01 T02710169  RH  054%=      5-min Rain = 0
KFR1 051841Z 08009KT 27/18 A3006 RMK A01 T02730175  RH  055%=      5-min Rain = 0
KFR1 051842Z 07007KT 27/17 A3006 RMK A01 T02730167  RH  052%=      5-min Rain = 0
KFR1 051843Z 06005KT 27/17 A3005 RMK A01 T02710169  RH  054%=      5-min Rain = 0
KFR1 051844Z 07007KT 27/17 A3005 RMK A01 T02710170  RH  054%=      5-min Rain = 0
KFR1 051845Z 07005KT 27/17 A3005 RMK A01 T02720170  RH  054%=      5-min Rain = 0
KFR1 051846Z 07005KT 27/17 A3005 RMK A01 T02720167  RH  053%=      5-min Rain = 0
KFR1 051847Z 07007KT 27/17 A3005 RMK A01 T02730171  RH  054%=      5-min Rain = 0
KFR1 051848Z 08010KT 28/18 A3005 RMK A01 T02770178  RH  055%=      5-min Rain = 0
KFR1 051849Z 08010KT 28/17 A3005 RMK A01 T02780171  RH  052%=      5-min Rain = 0
KFR1 051850Z 10008KT 28/17 A3005 RMK A01 T02760167  RH  051%=      5-min Rain = 0
KFR1 051851Z 10008KT 27/17 A3005 RMK A01 T02740170  RH  053%=      5-min Rain = 0
KFR1 051852Z 10007KT 27/17 A3005 RMK A01 T02740169  RH  052%=      5-min Rain = 0
KFR1 051853Z 08003KT 27/17 A3005 RMK A01 T02740165  RH  051%=      5-min Rain = 0
KFR1 051854Z 13002KT 27/17 A3005 RMK A01 T02740167  RH  052%=      5-min Rain = 0
KFR1 051855Z 10005KT 27/17 A3005 RMK A01 T02740168  RH  052%=      5-min Rain = 0
KFR1 051856Z 09004KT 27/16 A3005 RMK A01 T02740164  RH  051%=      5-min Rain = 0
KFR1 051857Z 11004KT 27/17 A3005 RMK A01 T02730168  RH  053%=      5-min Rain = 0
KFR1 051858Z 09009KT 28/17 A3005 RMK A01 T02750165  RH  051%=      5-min Rain = 0
KFR1 051859Z 09008KT 28/17 A3005 RMK A01 T02750166  RH  051%=      5-min Rain = 0
KFR1 051900Z 08005KT 28/16 A3005 RMK A01 T02750164  RH  051%=      5-min Rain = 0
KFR1 051901Z 06006KT 28/17 A3005 RMK A01 T02750168  RH  052%=      5-min Rain = 0
KFR1 051902Z 09006KT 28/17 A3005 RMK A01 T02770165  RH  051%=      5-min Rain = 0
KFR1 051903Z 08007KT 28/16 A3004 RMK A01 T02770162  RH  049%=      5-min Rain = 0
KFR1 051904Z 09009KT 28/16 A3004 RMK A01 T02780162  RH  049%=      5-min Rain = 0
KFR1 051905Z 07007KT 28/16 A3004 RMK A01 T02780160  RH  049%=      5-min Rain = 0
KFR1 051906Z 07005KT 28/16 A3004 RMK A01 T02780157  RH  048%=      5-min Rain = 0
KFR1 051907Z 08009KT 28/16 A3004 RMK A01 T02780164  RH  050%=      5-min Rain = 0
KFR1 051908Z 05006KT 28/16 A3004 RMK A01 T02790161  RH  049%=      5-min Rain = 0
KFR1 051909Z 06005KT 28/16 A3004 RMK A01 T02790160  RH  048%=      5-min Rain = 0
KFR1 051910Z 04003KT 28/16 A3004 RMK A01 T02790160  RH  048%=      5-min Rain = 0
KFR1 051911Z 04003KT 28/16 A3004 RMK A01 T02790159  RH  048%=      5-min Rain = 0
KFR1 051912Z 04007KT 28/16 A3004 RMK A01 T02790159  RH  048%=      5-min Rain = 0
KFR1 051913Z 05005KT 28/16 A3004 RMK A01 T02790162  RH  049%=      5-min Rain = 0
KFR1 051914Z 06005KT 28/16 A3004 RMK A01 T02790162  RH  049%=      5-min Rain = 0
KFR1 051915Z 05004KT 28/16 A3004 RMK A01 T02790158  RH  048%=      5-min Rain = 0
KFR1 051916Z 08003KT 28/16 A3004 RMK A01 T02780160  RH  049%=      5-min Rain = 0
KFR1 051917Z 11006KT 28/16 A3004 RMK A01 T02780160  RH  048%=      5-min Rain = 0
KFR1 051918Z 08003KT 28/16 A3004 RMK A01 T02800157  RH  047%=      5-min Rain = 0
KFR1 051919Z 07002KT 28/16 A3004 RMK A01 T02800164  RH  049%=      5-min Rain = 0
KFR1 051920Z 01004KT 28/17 A3004 RMK A01 T02830170  RH  051%=      5-min Rain = 0
KFR1 051921Z 00004KT 28/17 A3004 RMK A01 T02840171  RH  050%=      5-min Rain = 0
KFR1 051922Z 35003KT 28/17 A3004 RMK A01 T02840171  RH  050%=      5-min Rain = 0
KFR1 051923Z 02006KT 29/17 A3004 RMK A01 T02850174  RH  051%=      5-min Rain = 0
KFR1 051924Z 02006KT 28/17 A3004 RMK A01 T02840167  RH  049%=      5-min Rain = 0
KFR1 051925Z 02007KT 28/17 A3004 RMK A01 T02810165  RH  049%=      5-min Rain = 0
KFR1 051926Z 02006KT 28/17 A3004 RMK A01 T02800165  RH  050%=      5-min Rain = 0
KFR1 051927Z 02008KT 28/16 A3003 RMK A01 T02800164  RH  049%=      5-min Rain = 0
KFR1 051928Z 01009KT 28/16 A3003 RMK A01 T02800163  RH  049%=      5-min Rain = 0
KFR1 051929Z 01007KT 28/17 A3004 RMK A01 T02800167  RH  050%=      5-min Rain = 0
KFR1 051930Z 01006KT 28/17 A3004 RMK A01 T02820169  RH  050%=      5-min Rain = 0
KFR1 051931Z 01007KT 28/17 A3004 RMK A01 T02830166  RH  049%=      5-min Rain = 0
KFR1 051932Z 06006KT 28/17 A3004 RMK A01 T02840168  RH  050%=      5-min Rain = 0
KFR1 051933Z 07010KT 29/16 A3004 RMK A01 T02850163  RH  048%=      5-min Rain = 0
KFR1 051934Z 07008KT 28/15 A3004 RMK A01 T02840151  RH  044%=      5-min Rain = 0
KFR1 051935Z 08007KT 28/15 A3003 RMK A01 T02820150  RH  044%=      5-min Rain = 0
KFR1 051936Z 08008KT 28/15 A3003 RMK A01 T02820154  RH  046%=      5-min Rain = 0
KFR1 051937Z 07007KT 28/16 A3003 RMK A01 T02840157  RH  046%=      5-min Rain = 0
KFR1 051938Z 09007KT 29/16 A3003 RMK A01 T02850158  RH  046%=      5-min Rain = 0
KFR1 051939Z 08009KT 29/16 A3003 RMK A01 T02880159  RH  046%=      5-min Rain = 0
KFR1 051940Z 08010KT 29/16 A3003 RMK A01 T02880158  RH  045%=      5-min Rain = 0
KFR1 051941Z 05006KT 29/16 A3003 RMK A01 T02880163  RH  047%=      5-min Rain = 0
KFR1 051942Z 06008KT 29/16 A3003 RMK A01 T02910156  RH  044%=      5-min Rain = 0
KFR1 051943Z 05007KT 29/16 A3003 RMK A01 T02900161  RH  046%=      5-min Rain = 0
KFR1 051944Z 06009KT 29/16 A3003 RMK A01 T02910158  RH  045%=      5-min Rain = 0
KFR1 051945Z 07009KT 29/15 A3003 RMK A01 T02910153  RH  043%=      5-min Rain = 0
KFR1 051946Z 06010KT 29/16 A3003 RMK A01 T02890158  RH  045%=      5-min Rain = 0
KFR1 051947Z 05008KT 29/16 A3003 RMK A01 T02900155  RH  044%=      5-min Rain = 0
KFR1 051948Z 05008KT 29/16 A3003 RMK A01 T02900158  RH  045%=      5-min Rain = 0
KFR1 051949Z 07009G14KT 29/16 A3003 RMK A01 T02900156  RH  044%=      5-min Rain = 0
KFR1 051950Z 08011KT 29/15 A3003 RMK A01 T02890154  RH  044%=      5-min Rain = 0
KFR1 051951Z 08007KT 29/15 A3003 RMK A01 T02880150  RH  043%=      5-min Rain = 0
KFR1 051952Z 08003KT 29/15 A3003 RMK A01 T02860150  RH  043%=      5-min Rain = 0
KFR1 051953Z 08004G9KT 29/16 A3003 RMK A01 T02860157  RH  046%=      5-min Rain = 0
KFR1 051954Z 08008KT 29/16 A3003 RMK A01 T02880161  RH  046%=      5-min Rain = 0
KFR1 051955Z 07009KT 29/15 A3003 RMK A01 T02910153  RH  043%=      5-min Rain = 0
KFR1 051956Z 08008KT 29/16 A3003 RMK A01 T02890156  RH  044%=      5-min Rain = 0
KFR1 051957Z 04006KT 29/16 A3003 RMK A01 T02900158  RH  045%=      5-min Rain = 0
KFR1 051958Z 08007KT 29/15 A3003 RMK A01 T02920154  RH  043%=      5-min Rain = 0
KFR1 051959Z 06007G12KT 29/16 A3003 RMK A01 T02920161  RH  045%=      5-min Rain = 0
KFR1 052000Z 09009KT 29/16 A3003 RMK A01 T02930157  RH  044%=      5-min Rain = 0
KFR1 052001Z 09007KT 29/16 A3003 RMK A01 T02920158  RH  044%=      5-min Rain = 0
KFR1 052002Z 05007KT 29/16 A3002 RMK A01 T02910156  RH  044%=      5-min Rain = 0
KFR1 052003Z 05009KT 29/15 A3002 RMK A01 T02910153  RH  043%=      5-min Rain = 0
KFR1 052004Z 05007KT 29/15 A3002 RMK A01 T02910149  RH  042%=      5-min Rain = 0
KFR1 052005Z 06007KT 29/15 A3002 RMK A01 T02900147  RH  042%=      5-min Rain = 0
KFR1 052006Z 06011KT 29/15 A3002 RMK A01 T02890148  RH  042%=      5-min Rain = 0
KFR1 052007Z 07012KT 29/15 A3002 RMK A01 T02890146  RH  042%=      5-min Rain = 0
KFR1 052008Z 09011KT 29/15 A3002 RMK A01 T02890153  RH  044%=      5-min Rain = 0
KFR1 052009Z 10009KT 29/15 A3002 RMK A01 T02910152  RH  043%=      5-min Rain = 0
KFR1 052010Z 10007KT 29/15 A3002 RMK A01 T02910152  RH  043%=      5-min Rain = 0
KFR1 052011Z 07006KT 29/16 A3002 RMK A01 T02920155  RH  043%=      5-min Rain = 0
KFR1 052012Z 04010KT 29/15 A3002 RMK A01 T02930151  RH  042%=      5-min Rain = 0
KFR1 052013Z 05009KT 29/15 A3002 RMK A01 T02930147  RH  041%=      5-min Rain = 0
KFR1 052014Z 05007KT 29/15 A3002 RMK A01 T02920149  RH  042%=      5-min Rain = 0
KFR1 052015Z 02007KT 29/15 A3002 RMK A01 T02920149  RH  042%=      5-min Rain = 0
KFR1 052016Z 02005KT 29/15 A3002 RMK A01 T02910149  RH  042%=      5-min Rain = 0
KFR1 052017Z 07006KT 29/15 A3002 RMK A01 T02900151  RH  043%=      5-min Rain = 0
KFR1 052018Z 08007KT 29/15 A3002 RMK A01 T02900151  RH  043%=      5-min Rain = 0
KFR1 052019Z 09007KT 29/15 A3002 RMK A01 T02900147  RH  042%=      5-min Rain = 0
KFR1 052020Z 09005KT 29/15 A3002 RMK A01 T02890151  RH  043%=      5-min Rain = 0
KFR1 052021Z 08007KT 29/15 A3002 RMK A01 T02890146  RH  042%=      5-min Rain = 0
KFR1 052022Z 10005KT 29/15 A3002 RMK A01 T02880148  RH  042%=      5-min Rain = 0
KFR1 052023Z 09003KT 29/16 A3002 RMK A01 T02900160  RH  045%=      5-min Rain = 0
KFR1 052024Z 09007KT 29/16 A3002 RMK A01 T02930155  RH  043%=      5-min Rain = 0
KFR1 052025Z 07009KT 29/16 A3002 RMK A01 T02940157  RH  043%=      5-min Rain = 0
KFR1 052026Z 05007KT 30/16 A3002 RMK A01 T02960158  RH  043%=      5-min Rain = 0
KFR1 052027Z 06007KT 30/15 A3002 RMK A01 T02970152  RH  041%=      5-min Rain = 0
KFR1 052028Z 06006KT 30/16 A3002 RMK A01 T02950162  RH  045%=      5-min Rain = 0
KFR1 052029Z 08010KT 30/16 A3002 RMK A01 T02980157  RH  042%=      5-min Rain = 0
KFR1 052030Z 09008KT 30/15 A3002 RMK A01 T02950150  RH  041%=      5-min Rain = 0
KFR1 052031Z 08008KT 29/16 A3002 RMK A01 T02940156  RH  043%=      5-min Rain = 0
KFR1 052032Z 09006KT 29/16 A3002 RMK A01 T02940158  RH  044%=      5-min Rain = 0
KFR1 052033Z 08009KT 30/16 A3002 RMK A01 T02960158  RH  043%=      5-min Rain = 0
KFR1 052034Z 07009KT 30/15 A3002 RMK A01 T02950148  RH  041%=      5-min Rain = 0
KFR1 052035Z 06007KT 29/15 A3002 RMK A01 T02920153  RH  043%=      5-min Rain = 0
KFR1 052036Z 05009KT 29/15 A3002 RMK A01 T02920152  RH  043%=      5-min Rain = 0
KFR1 052037Z 04007KT 29/16 A3002 RMK A01 T02930155  RH  043%=      5-min Rain = 0
KFR1 052038Z 08005KT 29/16 A3002 RMK A01 T02940157  RH  043%=      5-min Rain = 0
KFR1 052039Z 11005KT 30/16 A3002 RMK A01 T02950155  RH  043%=      5-min Rain = 0
KFR1 052040Z 12007KT 30/15 A3002 RMK A01 T02950152  RH  042%=      5-min Rain = 0
KFR1 052041Z 08009KT 30/16 A3002 RMK A01 T02960160  RH  044%=      5-min Rain = 0
KFR1 052042Z 08010KT 30/16 A3002 RMK A01 T02980155  RH  042%=      5-min Rain = 0
KFR1 052043Z 08008KT 30/15 A3001 RMK A01 T02960150  RH  041%=      5-min Rain = 0
KFR1 052044Z 11008KT 29/16 A3001 RMK A01 T02940155  RH  043%=      5-min Rain = 0
KFR1 052045Z 10011KT 30/15 A3001 RMK A01 T02960151  RH  041%=      5-min Rain = 0
KFR1 052046Z 10008KT 30/15 A3001 RMK A01 T02960150  RH  041%=      5-min Rain = 0
KFR1 052047Z 09009KT 30/15 A3001 RMK A01 T02960153  RH  042%=      5-min Rain = 0
KFR1 052048Z 07008KT 30/16 A3001 RMK A01 T02980161  RH  043%=      5-min Rain = 0
KFR1 052049Z 08010KT 30/15 A3001 RMK A01 T03020152  RH  040%=      5-min Rain = 0
KFR1 052050Z 08009KT 30/15 A3001 RMK A01 T02990151  RH  041%=      5-min Rain = 0
KFR1 052051Z 09008KT 30/15 A3001 RMK A01 T02950149  RH  041%=      5-min Rain = 0
KFR1 052052Z 10008KT 29/15 A3001 RMK A01 T02920148  RH  041%=      5-min Rain = 0
KFR1 052053Z 12006KT 29/14 A3001 RMK A01 T02910144  RH  041%=      5-min Rain = 0
KFR1 052054Z 11005KT 29/15 A3001 RMK A01 T02910145  RH  041%=      5-min Rain = 0
KFR1 052055Z 08005KT 29/16 A3001 RMK A01 T02940155  RH  043%=      5-min Rain = 0
KFR1 052056Z 08008KT 30/15 A3001 RMK A01 T02960149  RH  041%=      5-min Rain = 0
KFR1 052057Z 09009KT 30/15 A3001 RMK A01 T02970146  RH  040%=      5-min Rain = 0
KFR1 052058Z 07010KT 30/15 A3001 RMK A01 T02970147  RH  040%=      5-min Rain = 0
KFR1 052059Z 06008KT 30/15 A3001 RMK A01 T02970149  RH  041%=      5-min Rain = 0
KFR1 052100Z 06008KT 30/15 A3001 RMK A01 T02980149  RH  040%=      5-min Rain = 0
KFR1 052101Z 03007KT 30/15 A3001 RMK A01 T02970148  RH  040%=      5-min Rain = 0
KFR1 052102Z 36004KT 30/15 A3001 RMK A01 T02980150  RH  041%=      5-min Rain = 0
KFR1 052103Z 03005KT 30/15 A3001 RMK A01 T02980146  RH  039%=      5-min Rain = 0
KFR1 052104Z 08008KT 30/15 A3001 RMK A01 T02980151  RH  041%=      5-min Rain = 0
KFR1 052105Z 08006KT 30/16 A3001 RMK A01 T02990158  RH  042%=      5-min Rain = 0
KFR1 052106Z 09009KT 30/15 A3001 RMK A01 T03010149  RH  040%=      5-min Rain = 0
KFR1 052107Z 09008KT 30/15 A3001 RMK A01 T02980145  RH  039%=      5-min Rain = 0
KFR1 052108Z 12004KT 30/15 A3001 RMK A01 T02960145  RH  040%=      5-min Rain = 0
KFR1 052109Z 09003KT 30/15 A3001 RMK A01 T02960146  RH  040%=      5-min Rain = 0
KFR1 052110Z 10006KT 30/16 A3001 RMK A01 T02970155  RH  042%=      5-min Rain = 0
KFR1 052111Z 05008KT 30/16 A30 RMK A01 T03010156  RH  041%=      5-min Rain = 0
KFR1 052112Z 07007KT 30/15 A3001 RMK A01 T03000152  RH  041%=      5-min Rain = 0
KFR1 052113Z 07006KT 30/15 A3001 RMK A01 T02980150  RH  040%=      5-min Rain = 0
KFR1 052114Z 09004KT 30/15 A3001 RMK A01 T02960153  RH  042%=      5-min Rain = 0
KFR1 052115Z 06005KT 30/15 A3001 RMK A01 T02960153  RH  042%=      5-min Rain = 0
KFR1 052116Z 07007KT 30/15 A30 RMK A01 T02980154  RH  042%=      5-min Rain = 0
KFR1 052117Z 05006KT 30/15 A3001 RMK A01 T03000154  RH  041%=      5-min Rain = 0
KFR1 052118Z 04005KT 30/15 A30 RMK A01 T03000150  RH  040%=      5-min Rain = 0
KFR1 052119Z 05004KT 30/16 A30 RMK A01 T02990156  RH  042%=      5-min Rain = 0
KFR1 052120Z 05007KT 30/15 A30 RMK A01 T03000151  RH  041%=      5-min Rain = 0
KFR1 052121Z 03005KT 30/15 A30 RMK A01 T02990152  RH  041%=      5-min Rain = 0
KFR1 052122Z 04004KT 30/16 A30 RMK A01 T03000157  RH  042%=      5-min Rain = 0
KFR1 052123Z 06010KT 30/15 A30 RMK A01 T03010154  RH  041%=      5-min Rain = 0
KFR1 052124Z 07012KT 30/15 A30 RMK A01 T03000151  RH  040%=      5-min Rain = 0
KFR1 052125Z 08009KT 30/15 A30 RMK A01 T02990150  RH  040%=      5-min Rain = 0
KFR1 052126Z 09007KT 30/15 A30 RMK A01 T02970151  RH  041%=      5-min Rain = 0
KFR1 052127Z 10006KT 30/15 A30 RMK A01 T02970154  RH  042%=      5-min Rain = 0
KFR1 052128Z 09006KT 30/15 A30 RMK A01 T02970151  RH  041%=      5-min Rain = 0
KFR1 052129Z 06007KT 30/16 A30 RMK A01 T02980155  RH  042%=      5-min Rain = 0
KFR1 052130Z 05007KT 30/15 A30 RMK A01 T02980151  RH  041%=      5-min Rain = 0
KFR1 052131Z 06005KT 30/15 A30 RMK A01 T02950147  RH  040%=      5-min Rain = 0
KFR1 052132Z 07010KT 29/15 A30 RMK A01 T02930149  RH  042%=      5-min Rain = 0
KFR1 052133Z 08010KT 29/15 A30 RMK A01 T02930147  RH  041%=      5-min Rain = 0
KFR1 052134Z 08008KT 30/15 A30 RMK A01 T02950150  RH  041%=      5-min Rain = 0
KFR1 052135Z 09009KT 30/15 A30 RMK A01 T02970153  RH  042%=      5-min Rain = 0
KFR1 052136Z 06010KT 30/16 A30 RMK A01 T03010158  RH  042%=      5-min Rain = 0
KFR1 052137Z 08012KT 30/15 A30 RMK A01 T03020154  RH  041%=      5-min Rain = 0
KFR1 052138Z 09010KT 30/15 A30 RMK A01 T03000151  RH  040%=      5-min Rain = 0
KFR1 052139Z 08007KT 30/15 A30 RMK A01 T02980151  RH  041%=      5-min Rain = 0
KFR1 052140Z 05008G13KT 30/16 A30 RMK A01 T02970157  RH  043%=      5-min Rain = 0
KFR1 052141Z 04010KT 30/15 A30 RMK A01 T02990154  RH  041%=      5-min Rain = 0
KFR1 052142Z 04008KT 30/15 A30 RMK A01 T02990151  RH  041%=      5-min Rain = 0
KFR1 052143Z 04007KT 30/15 A30 RMK A01 T02990152  RH  041%=      5-min Rain = 0
KFR1 052144Z 06007KT 30/15 A30 RMK A01 T02990153  RH  041%=      5-min Rain = 0
KFR1 052145Z 05006KT 30/15 A2999 RMK A01 T02990152  RH  041%=      5-min Rain = 0
KFR1 052146Z 06007KT 30/15 A2999 RMK A01 T02980149  RH  040%=      5-min Rain = 0
KFR1 052147Z 03007KT 30/15 A2999 RMK A01 T02970153  RH  041%=      5-min Rain = 0
KFR1 052148Z 03007KT 30/15 A2999 RMK A01 T02980154  RH  042%=      5-min Rain = 0
KFR1 052149Z 06007KT 30/15 A2999 RMK A01 T02990154  RH  042%=      5-min Rain = 0
KFR1 052150Z 10009KT 30/15 A2999 RMK A01 T03000154  RH  041%=      5-min Rain = 0
KFR1 052151Z 12009KT 30/15 A2999 RMK A01 T03010147  RH  039%=      5-min Rain = 0
KFR1 052152Z 15006KT 30/14 A2999 RMK A01 T03000144  RH  039%=      5-min Rain = 0
KFR1 052153Z 12004KT 30/15 A2999 RMK A01 T02990145  RH  039%=      5-min Rain = 0
KFR1 052154Z 13006KT 30/15 A2999 RMK A01 T02990152  RH  041%=      5-min Rain = 0
KFR1 052155Z 11009KT 30/15 A2999 RMK A01 T03000150  RH  040%=      5-min Rain = 0
KFR1 052156Z 12010KT 30/15 A2999 RMK A01 T03020150  RH  040%=      5-min Rain = 0
KFR1 052157Z 08011KT 30/15 A2999 RMK A01 T03030154  RH  041%=      5-min Rain = 0
KFR1 052158Z 06011KT 30/15 A2999 RMK A01 T03030152  RH  040%=      5-min Rain = 0
KFR1 052159Z 06012KT 30/15 A2999 RMK A01 T03010151  RH  040%=      5-min Rain = 0
KFR1 052200Z 06008KT 30/15 A2999 RMK A01 T03000153  RH  041%=      5-min Rain = 0
KFR1 052201Z 04009KT 30/16 A2999 RMK A01 T03000155  RH  041%=      5-min Rain = 0
KFR1 052202Z 05007KT 30/15 A2999 RMK A01 T03010150  RH  040%=      5-min Rain = 0
KFR1 052203Z 07007KT 30/16 A2999 RMK A01 T03000155  RH  042%=      5-min Rain = 0
KFR1 052204Z 07007KT 30/15 A2999 RMK A01 T03000149  RH  040%=      5-min Rain = 0
KFR1 052205Z 09008KT 30/15 A2999 RMK A01 T02980148  RH  040%=      5-min Rain = 0
KFR1 052206Z 09009KT 30/15 A2999 RMK A01 T02960147  RH  040%=      5-min Rain = 0
KFR1 052207Z 09011KT 30/15 A2999 RMK A01 T02960149  RH  041%=      5-min Rain = 0
KFR1 052208Z 10008KT 30/15 A2999 RMK A01 T02970146  RH  040%=      5-min Rain = 0
KFR1 052209Z 11007KT 30/15 A2999 RMK A01 T02970146  RH  040%=      5-min Rain = 0
KFR1 052210Z 11005KT 30/15 A2999 RMK A01 T02960149  RH  041%=      5-min Rain = 0
KFR1 052211Z 12006KT 30/15 A2999 RMK A01 T02970146  RH  040%=      5-min Rain = 0
KFR1 052212Z 10007KT 30/15 A2999 RMK A01 T02980149  RH  040%=      5-min Rain = 0
KFR1 052213Z 08008KT 30/15 A2999 RMK A01 T02990148  RH  040%=      5-min Rain = 0
KFR1 052214Z 09008KT 30/15 A2999 RMK A01 T03000148  RH  040%=      5-min Rain = 0
KFR1 052215Z 07007KT 30/15 A2999 RMK A01 T02990153  RH  041%=      5-min Rain = 0
KFR1 052216Z 06006KT 30/15 A2999 RMK A01 T03010149  RH  040%=      5-min Rain = 0
KFR1 052217Z 07006KT 30/15 A2999 RMK A01 T03010146  RH  039%=      5-min Rain = 0
KFR1 052218Z 05007KT 30/15 A2999 RMK A01 T03000148  RH  040%=      5-min Rain = 0
KFR1 052219Z 03008KT 30/16 A2999 RMK A01 T03020155  RH  041%=      5-min Rain = 0
KFR1 052220Z 05009KT 30/15 A2999 RMK A01 T03030150  RH  040%=      5-min Rain = 0
KFR1 052221Z 07008KT 30/15 A2998 RMK A01 T03010147  RH  039%=      5-min Rain = 0
KFR1 052222Z 07009KT 30/15 A2998 RMK A01 T03000146  RH  039%=      5-min Rain = 0
KFR1 052223Z 06008KT 30/15 A2998 RMK A01 T02990147  RH  040%=      5-min Rain = 0
KFR1 052224Z 06009KT 30/15 A2998 RMK A01 T02990150  RH  040%=      5-min Rain = 0
KFR1 052225Z 06010G15KT 30/15 A2998 RMK A01 T03000151  RH  040%=      5-min Rain = 0
KFR1 052226Z 06012KT 30/15 A2998 RMK A01 T03000147  RH  039%=      5-min Rain = 0
KFR1 052227Z 06009KT 30/15 A2998 RMK A01 T03000148  RH  040%=      5-min Rain = 0
KFR1 052228Z 05007KT 30/15 A2998 RMK A01 T03000152  RH  041%=      5-min Rain = 0
KFR1 052229Z 04005KT 30/15 A2998 RMK A01 T03010147  RH  039%=      5-min Rain = 0
KFR1 052230Z 05005KT 30/15 A2998 RMK A01 T03000151  RH  040%=      5-min Rain = 0
KFR1 052231Z 08007KT 30/15 A2998 RMK A01 T03000151  RH  040%=      5-min Rain = 0
KFR1 052232Z 08007KT 30/15 A2998 RMK A01 T03020146  RH  039%=      5-min Rain = 0
KFR1 052233Z 07004KT 30/14 A2998 RMK A01 T03010140  RH  037%=      5-min Rain = 0
KFR1 052234Z 07005G10KT 30/15 A2998 RMK A01 T03010147  RH  039%=      5-min Rain = 0
KFR1 052235Z 06010KT 30/15 A2998 RMK A01 T03010145  RH  039%=      5-min Rain = 0
KFR1 052236Z 03006KT 30/14 A2998 RMK A01 T02990142  RH  038%=      5-min Rain = 0
KFR1 052237Z 03007KT 30/15 A2998 RMK A01 T02980149  RH  040%=      5-min Rain = 0
KFR1 052238Z 03006KT 30/15 A2998 RMK A01 T03000146  RH  039%=      5-min Rain = 0
KFR1 052239Z 05004KT 30/15 A2998 RMK A01 T03000146  RH  039%=      5-min Rain = 0
KFR1 052240Z 07005KT 30/15 A2998 RMK A01 T03000149  RH  040%=      5-min Rain = 0
KFR1 052241Z 10006KT 30/15 A2998 RMK A01 T02990150  RH  040%=      5-min Rain = 0
KFR1 052242Z 10007KT 30/15 A2998 RMK A01 T02990146  RH  039%=      5-min Rain = 0
KFR1 052243Z 11010KT 30/14 A2998 RMK A01 T02980144  RH  039%=      5-min Rain = 0
KFR1 052244Z 09010KT 30/15 A2998 RMK A01 T02970146  RH  040%=      5-min Rain = 0
KFR1 052245Z 09009KT 30/15 A2998 RMK A01 T02970147  RH  040%=      5-min Rain = 0
KFR1 052246Z 09008KT 30/15 A2997 RMK A01 T02960149  RH  041%=      5-min Rain = 0
KFR1 052247Z 08011KT 30/15 A2997 RMK A01 T02950146  RH  040%=      5-min Rain = 0
KFR1 052248Z 07010KT 29/14 A2997 RMK A01 T02930140  RH  039%=      5-min Rain = 0
KFR1 052249Z 08007KT 29/14 A2997 RMK A01 T02920139  RH  039%=      5-min Rain = 0
KFR1 052250Z 08009KT 29/14 A2997 RMK A01 T02920143  RH  040%=      5-min Rain = 0
KFR1 052251Z 07007KT 29/14 A2997 RMK A01 T02920140  RH  040%=      5-min Rain = 0
KFR1 052252Z 08009KT 29/14 A2997 RMK A01 T02930140  RH  039%=      5-min Rain = 0
KFR1 052253Z 09007KT 29/15 A2997 RMK A01 T02940148  RH  041%=      5-min Rain = 0
KFR1 052254Z 07007KT 30/14 A2997 RMK A01 T02960144  RH  040%=      5-min Rain = 0
KFR1 052255Z 06006KT 30/14 A2997 RMK A01 T02950139  RH  038%=      5-min Rain = 0
KFR1 052256Z 08008KT 30/14 A2997 RMK A01 T02950144  RH  040%=      5-min Rain = 0
KFR1 052257Z 09006KT 29/15 A2998 RMK A01 T02940145  RH  040%=      5-min Rain = 0
KFR1 052258Z 09006KT 29/15 A2998 RMK A01 T02940147  RH  041%=      5-min Rain = 0
KFR1 052259Z 08005KT 29/14 A2998 RMK A01 T02940143  RH  040%=      5-min Rain = 0
KFR1 052300Z 07004KT 29/14 A2998 RMK A01 T02930142  RH  040%=      5-min Rain = 0
KFR1 052301Z 05002KT 29/14 A2997 RMK A01 T02930141  RH  039%=      5-min Rain = 0
KFR1 052302Z 10004KT 29/14 A2997 RMK A01 T02940144  RH  040%=      5-min Rain = 0
KFR1 052303Z 09002KT 30/14 A2997 RMK A01 T02950142  RH  039%=      5-min Rain = 0
KFR1 052304Z 08004KT 30/15 A2997 RMK A01 T02960149  RH  041%=      5-min Rain = 0
KFR1 052305Z 09007KT 30/14 A2997 RMK A01 T02980143  RH  039%=      5-min Rain = 0
KFR1 052306Z 09005KT 30/15 A2997 RMK A01 T02970146  RH  040%=      5-min Rain = 0
KFR1 052307Z 10008KT 30/15 A2997 RMK A01 T02970147  RH  040%=      5-min Rain = 0
KFR1 052308Z 07006KT 30/15 A2997 RMK A01 T02970148  RH  040%=      5-min Rain = 0
KFR1 052309Z 07007KT 30/14 A2997 RMK A01 T02970143  RH  039%=      5-min Rain = 0
KFR1 052310Z 08007KT 30/15 A2997 RMK A01 T02960147  RH  040%=      5-min Rain = 0
KFR1 052311Z 08006KT 30/15 A2997 RMK A01 T02950147  RH  041%=      5-min Rain = 0
KFR1 052312Z 08006KT 30/15 A2997 RMK A01 T02950148  RH  041%=      5-min Rain = 0
KFR1 052313Z 09006KT 30/15 A2997 RMK A01 T02950147  RH  041%=      5-min Rain = 0
KFR1 052314Z 09006KT 29/15 A2997 RMK A01 T02940146  RH  041%=      5-min Rain = 0
KFR1 052315Z 10005KT 29/15 A2997 RMK A01 T02930150  RH  042%=      5-min Rain = 0
KFR1 052316Z 09007KT 29/15 A2997 RMK A01 T02920149  RH  042%=      5-min Rain = 0
KFR1 052317Z 08007KT 29/15 A2997 RMK A01 T02920147  RH  041%=      5-min Rain = 0
KFR1 052318Z 08006KT 29/15 A2997 RMK A01 T02910148  RH  042%=      5-min Rain = 0
KFR1 052319Z 09006KT 29/15 A2997 RMK A01 T02900149  RH  042%=      5-min Rain = 0
KFR1 052320Z 09005KT 29/16 A2997 RMK A01 T02900156  RH  044%=      5-min Rain = 0
KFR1 052321Z 11004KT 29/15 A2997 RMK A01 T02900152  RH  043%=      5-min Rain = 0
KFR1 052322Z 09004KT 29/15 A2997 RMK A01 T02900153  RH  043%=      5-min Rain = 0
KFR1 052323Z 08007KT 29/15 A2997 RMK A01 T02900151  RH  043%=      5-min Rain = 0
KFR1 052324Z 08007KT 29/15 A2997 RMK A01 T02900149  RH  042%=      5-min Rain = 0
KFR1 052325Z 08008KT 29/15 A2997 RMK A01 T02900150  RH  043%=      5-min Rain = 0
KFR1 052326Z 07007KT 29/15 A2997 RMK A01 T02890149  RH  042%=      5-min Rain = 0
KFR1 052327Z 08007KT 29/15 A2997 RMK A01 T02890150  RH  043%=      5-min Rain = 0
KFR1 052328Z 08006KT 29/15 A2997 RMK A01 T02890151  RH  043%=      5-min Rain = 0
KFR1 052329Z 07007KT 29/15 A2997 RMK A01 T02900147  RH  042%=      5-min Rain = 0
KFR1 052330Z 08006KT 29/15 A2997 RMK A01 T02890145  RH  041%=      5-min Rain = 0
KFR1 052331Z 08005KT 29/15 A2997 RMK A01 T02890153  RH  044%=      5-min Rain = 0
KFR1 052332Z 06005KT 29/15 A2997 RMK A01 T02890151  RH  043%=      5-min Rain = 0
KFR1 052333Z 05005KT 29/15 A2997 RMK A01 T02890146  RH  041%=      5-min Rain = 0
KFR1 052334Z 05005KT 29/15 A2997 RMK A01 T02890153  RH  043%=      5-min Rain = 0
KFR1 052335Z 06008KT 29/15 A2997 RMK A01 T02890146  RH  042%=      5-min Rain = 0
KFR1 052336Z 06008KT 29/15 A2997 RMK A01 T02890145  RH  041%=      5-min Rain = 0
KFR1 052337Z 06008KT 29/15 A2997 RMK A01 T02890148  RH  042%=      5-min Rain = 0
KFR1 052338Z 05008KT 29/15 A2997 RMK A01 T02890153  RH  044%=      5-min Rain = 0
KFR1 052339Z 05007KT 29/15 A2997 RMK A01 T02900154  RH  044%=      5-min Rain = 0
KFR1 052340Z 06009KT 29/15 A2997 RMK A01 T02890154  RH  044%=      5-min Rain = 0
KFR1 052341Z 06009KT 29/15 A2997 RMK A01 T02890152  RH  043%=      5-min Rain = 0
KFR1 052342Z 06008KT 29/15 A2997 RMK A01 T02890152  RH  043%=      5-min Rain = 0
KFR1 052343Z 06008KT 29/15 A2997 RMK A01 T02890153  RH  044%=      5-min Rain = 0
KFR1 052344Z 06007KT 29/15 A2997 RMK A01 T02890152  RH  043%=      5-min Rain = 0
KFR1 052345Z 06008KT 29/15 A2997 RMK A01 T02880154  RH  044%=      5-min Rain = 0
KFR1 052346Z 06008KT 29/15 A2997 RMK A01 T02880154  RH  044%=      5-min Rain = 0
KFR1 052347Z 06007KT 29/15 A2997 RMK A01 T02880152  RH  044%=      5-min Rain = 0
KFR1 052348Z 07009KT 29/15 A2997 RMK A01 T02870152  RH  044%=      5-min Rain = 0
KFR1 052349Z 07008KT 29/15 A2997 RMK A01 T02870153  RH  044%=      5-min Rain = 0
KFR1 052350Z 07008KT 29/15 A2997 RMK A01 T02870150  RH  043%=      5-min Rain = 0
KFR1 052351Z 06008KT 29/15 A2997 RMK A01 T02870151  RH  044%=      5-min Rain = 0
KFR1 052352Z 06008KT 29/15 A2997 RMK A01 T02870153  RH  044%=      5-min Rain = 0
KFR1 052353Z 05008KT 29/15 A2997 RMK A01 T02870151  RH  044%=      5-min Rain = 0
KFR1 052354Z 06008KT 29/15 A2997 RMK A01 T02860150  RH  043%=      5-min Rain = 0
KFR1 052355Z 06008KT 29/15 A2997 RMK A01 T02860150  RH  044%=      5-min Rain = 0
KFR1 052356Z 06009KT 29/15 A2997 RMK A01 T02860152  RH  044%=      5-min Rain = 0
KFR1 052357Z 06008KT 29/15 A2997 RMK A01 T02860152  RH  044%=      5-min Rain = 0
KFR1 052358Z 06008KT 29/15 A2997 RMK A01 T02860153  RH  044%=      5-min Rain = 0
KFR1 052359Z 06009KT 29/16 A2997 RMK A01 T02860155  RH  045%=      5-min Rain = 0
KFR1 060000Z 05009KT 29/15 A2996 RMK A01 T02860151  RH  044%=      5-min Rain = 0
KFR1 060001Z 07009KT 29/15 A2996 RMK A01 T02860152  RH  044%=      5-min Rain = 0
KFR1 060002Z 07007KT 29/15 A2996 RMK A01 T02860153  RH  044%=      5-min Rain = 0
KFR1 060003Z 06008KT 29/16 A2996 RMK A01 T02850155  RH  045%=      5-min Rain = 0
KFR1 060004Z 07009KT 29/15 A2996 RMK A01 T02850154  RH  045%=      5-min Rain = 0
KFR1 060005Z 07011KT 29/15 A2996 RMK A01 T02850152  RH  044%=      5-min Rain = 0
KFR1 060006Z 07012KT 29/15 A2997 RMK A01 T02850150  RH  044%=      5-min Rain = 0
KFR1 060007Z 07012KT 29/15 A2997 RMK A01 T02850151  RH  044%=      5-min Rain = 0
KFR1 060008Z 07009KT 28/15 A2997 RMK A01 T02840151  RH  044%=      5-min Rain = 0
KFR1 060009Z 07010KT 28/15 A2997 RMK A01 T02840153  RH  045%=      5-min Rain = 0
KFR1 060010Z 07010KT 28/15 A2996 RMK A01 T02840151  RH  044%=      5-min Rain = 0
KFR1 060011Z 07009KT 28/15 A2996 RMK A01 T02840151  RH  044%=      5-min Rain = 0
KFR1 060012Z 07009KT 28/15 A2996 RMK A01 T02830152  RH  045%=      5-min Rain = 0
KFR1 060013Z 08009KT 28/15 A2996 RMK A01 T02830152  RH  045%=      5-min Rain = 0
KFR1 060014Z 08010KT 28/15 A2996 RMK A01 T02830152  RH  045%=      5-min Rain = 0
KFR1 060015Z 08009KT 28/15 A2996 RMK A01 T02830153  RH  045%=      5-min Rain = 0
KFR1 060016Z 07007KT 28/15 A2996 RMK A01 T02830154  RH  045%=      5-min Rain = 0
KFR1 060017Z 07009KT 28/15 A2996 RMK A01 T02830154  RH  046%=      5-min Rain = 0
KFR1 060018Z 07010KT 28/15 A2996 RMK A01 T02830152  RH  045%=      5-min Rain = 0
KFR1 060019Z 07010KT 28/15 A2996 RMK A01 T02830152  RH  045%=      5-min Rain = 0
KFR1 060020Z 07010KT 28/15 A2996 RMK A01 T02820150  RH  044%=      5-min Rain = 0
KFR1 060021Z 08010KT 28/15 A2996 RMK A01 T02820152  RH  045%=      5-min Rain = 0
KFR1 060022Z 07009KT 28/15 A2996 RMK A01 T02820151  RH  045%=      5-min Rain = 0
KFR1 060023Z 08010KT 28/15 A2996 RMK A01 T02830151  RH  045%=      5-min Rain = 0
KFR1 060024Z 07010KT 28/15 A2996 RMK A01 T02830151  RH  045%=      5-min Rain = 0
KFR1 060025Z 06009KT 28/15 A2996 RMK A01 T02820150  RH  044%=      5-min Rain = 0
KFR1 060026Z 07011KT 28/15 A2996 RMK A01 T02830150  RH  044%=      5-min Rain = 0
KFR1 060027Z 06012KT 28/15 A2996 RMK A01 T02830149  RH  044%=      5-min Rain = 0
KFR1 060028Z 06010KT 28/15 A2996 RMK A01 T02820147  RH  044%=      5-min Rain = 0
KFR1 060029Z 07008KT 28/15 A2996 RMK A01 T02830150  RH  044%=      5-min Rain = 0
KFR1 060030Z 07009KT 28/15 A2996 RMK A01 T02820151  RH  045%=      5-min Rain = 0
KFR1 060031Z 06010KT 28/15 A2996 RMK A01 T02830152  RH  045%=      5-min Rain = 0
KFR1 060032Z 07009KT 28/15 A2996 RMK A01 T02820151  RH  045%=      5-min Rain = 0
KFR1 060033Z 07012KT 28/15 A2996 RMK A01 T02820151  RH  045%=      5-min Rain = 0
KFR1 060034Z 07010KT 28/15 A2996 RMK A01 T02820152  RH  045%=      5-min Rain = 0
KFR1 060035Z 08010KT 28/15 A2996 RMK A01 T02820152  RH  045%=      5-min Rain = 0
KFR1 060036Z 07011KT 28/15 A2996 RMK A01 T02810151  RH  045%=      5-min Rain = 0
KFR1 060037Z 07009KT 28/15 A2997 RMK A01 T02820151  RH  045%=      5-min Rain = 0
KFR1 060038Z 07009KT 28/15 A2997 RMK A01 T02820151  RH  045%=      5-min Rain = 0
KFR1 060039Z 07009KT 28/15 A2997 RMK A01 T02830151  RH  045%=      5-min Rain = 0
KFR1 060040Z 07008KT 28/15 A2997 RMK A01 T02840151  RH  044%=      5-min Rain = 0
KFR1 060041Z 08010KT 28/15 A2997 RMK A01 T02840152  RH  045%=      5-min Rain = 0
KFR1 060042Z 07009KT 28/15 A2997 RMK A01 T02840149  RH  044%=      5-min Rain = 0
KFR1 060043Z 07008KT 28/15 A2997 RMK A01 T02840152  RH  045%=      5-min Rain = 0
KFR1 060044Z 07007KT 29/15 A2998 RMK A01 T02850152  RH  045%=      5-min Rain = 0
KFR1 060045Z 06009KT 29/15 A2998 RMK A01 T02850152  RH  044%=      5-min Rain = 0
KFR1 060046Z 07008KT 29/15 A2998 RMK A01 T02850152  RH  044%=      5-min Rain = 0
KFR1 060047Z 07008KT 28/15 A2998 RMK A01 T02840152  RH  045%=      5-min Rain = 0
KFR1 060048Z 07008KT 28/15 A2998 RMK A01 T02830152  RH  045%=      5-min Rain = 0
KFR1 060049Z 07009KT 28/15 A2998 RMK A01 T02830152  RH  045%=      5-min Rain = 0
KFR1 060050Z 07009KT 28/15 A2998 RMK A01 T02820151  RH  045%=      5-min Rain = 0
KFR1 060051Z 07009KT 28/15 A2998 RMK A01 T02820151  RH  045%=      5-min Rain = 0
KFR1 060052Z 08009KT 28/15 A2998 RMK A01 T02820151  RH  045%=      5-min Rain = 0
KFR1 060053Z 06008KT 28/15 A2999 RMK A01 T02810154  RH  046%=      5-min Rain = 0
KFR1 060054Z 07008KT 28/16 A2999 RMK A01 T02810155  RH  046%=      5-min Rain = 0
KFR1 060055Z 07009KT 28/16 A2999 RMK A01 T02810155  RH  046%=      5-min Rain = 0
KFR1 060056Z 07008KT 28/16 A2999 RMK A01 T02800155  RH  046%=      5-min Rain = 0
KFR1 060057Z 07008KT 28/16 A2999 RMK A01 T02800155  RH  046%=      5-min Rain = 0
KFR1 060058Z 06009KT 28/16 A2999 RMK A01 T02800155  RH  047%=      5-min Rain = 0
KFR1 060059Z 06010KT 28/15 A2999 RMK A01 T02800153  RH  046%=      5-min Rain = 0
KFR1 060100Z 07009KT 28/15 A2999 RMK A01 T02800154  RH  046%=      5-min Rain = 0
KFR1 060101Z 07009KT 28/16 A2999 RMK A01 T02800156  RH  047%=      5-min Rain = 0
KFR1 060102Z 06009KT 28/16 A2999 RMK A01 T02800156  RH  047%=      5-min Rain = 0
KFR1 060103Z 06010KT 28/16 A2999 RMK A01 T02800157  RH  047%=      5-min Rain = 0
KFR1 060104Z 06011KT 28/16 A2999 RMK A01 T02800156  RH  047%=      5-min Rain = 0
KFR1 060105Z 05011KT 28/16 A2999 RMK A01 T02790156  RH  047%=      5-min Rain = 0
KFR1 060106Z 06011KT 28/16 A2999 RMK A01 T02790156  RH  047%=      5-min Rain = 0
KFR1 060107Z 06010KT 28/16 A2999 RMK A01 T02790155  RH  047%=      5-min Rain = 0
KFR1 060108Z 06010KT 28/16 A2999 RMK A01 T02790156  RH  047%=      5-min Rain = 0
KFR1 060109Z 06010KT 28/16 A2999 RMK A01 T02790156  RH  047%=      5-min Rain = 0
KFR1 060110Z 06009KT 28/16 A2999 RMK A01 T02780156  RH  047%=      5-min Rain = 0
KFR1 060111Z 06010KT 28/16 A2999 RMK A01 T02780156  RH  047%=      5-min Rain = 0
KFR1 060112Z 06010KT 28/16 A2999 RMK A01 T02780155  RH  047%=      5-min Rain = 0
KFR1 060113Z 07009KT 28/16 A2999 RMK A01 T02780156  RH  047%=      5-min Rain = 0
KFR1 060114Z 06009KT 28/16 A2999 RMK A01 T02780157  RH  048%=      5-min Rain = 0
KFR1 060115Z 06007KT 28/16 A30 RMK A01 T02780157  RH  048%=      5-min Rain = 0
KFR1 060116Z 07008KT 28/16 A30 RMK A01 T02780158  RH  048%=      5-min Rain = 0
KFR1 060117Z 05007KT 28/16 A30 RMK A01 T02770159  RH  048%=      5-min Rain = 0
KFR1 060118Z 06009KT 28/16 A30 RMK A01 T02770160  RH  049%=      5-min Rain = 0
KFR1 060119Z 05008KT 28/16 A30 RMK A01 T02760160  RH  049%=      5-min Rain = 0
KFR1 060120Z 05007KT 28/16 A30 RMK A01 T02760161  RH  050%=      5-min Rain = 0
KFR1 060121Z 06009KT 28/16 A30 RMK A01 T02750161  RH  050%=      5-min Rain = 0
KFR1 060122Z 07009KT 28/16 A30 RMK A01 T02750162  RH  050%=      5-min Rain = 0
KFR1 060123Z 06012KT 28/16 A30 RMK A01 T02750162  RH  050%=      5-min Rain = 0
KFR1 060124Z 07012KT 28/16 A30 RMK A01 T02750163  RH  050%=      5-min Rain = 0
KFR1 060125Z 07013KT 27/16 A30 RMK A01 T02740162  RH  050%=      5-min Rain = 0
KFR1 060126Z 07012KT 27/16 A30 RMK A01 T02740163  RH  050%=      5-min Rain = 0
KFR1 060127Z 07010KT 27/16 A30 RMK A01 T02740164  RH  051%=      5-min Rain = 0
KFR1 060128Z 07010KT 27/16 A30 RMK A01 T02740164  RH  051%=      5-min Rain = 0
KFR1 060129Z 07011KT 27/16 A30 RMK A01 T02730164  RH  051%=      5-min Rain = 0
KFR1 060130Z 07012KT 27/16 A30 RMK A01 T02730164  RH  051%=      5-min Rain = 0
KFR1 060131Z 07012KT 27/17 A30 RMK A01 T02740165  RH  051%=      5-min Rain = 0
KFR1 060132Z 07011KT 27/16 A30 RMK A01 T02730164  RH  051%=      5-min Rain = 0
KFR1 060133Z 06010KT 27/17 A30 RMK A01 T02730165  RH  052%=      5-min Rain = 0
KFR1 060134Z 07011KT 27/17 A30 RMK A01 T02720165  RH  052%=      5-min Rain = 0
KFR1 060135Z 07011KT 27/17 A30 RMK A01 T02720165  RH  052%=      5-min Rain = 0
KFR1 060136Z 06010KT 27/17 A30 RMK A01 T02720165  RH  052%=      5-min Rain = 0
KFR1 060137Z 07009KT 27/17 A30 RMK A01 T02720166  RH  052%=      5-min Rain = 0
KFR1 060138Z 06011KT 27/17 A30 RMK A01 T02720165  RH  052%=      5-min Rain = 0
KFR1 060139Z 07008KT 27/17 A30 RMK A01 T02720166  RH  052%=      5-min Rain = 0
KFR1 060140Z 07008KT 27/17 A30 RMK A01 T02710167  RH  053%=      5-min Rain = 0
KFR1 060141Z 07007KT 27/17 A30 RMK A01 T02710167  RH  053%=      5-min Rain = 0
KFR1 060142Z 07007KT 27/17 A30 RMK A01 T02710167  RH  053%=      5-min Rain = 0
KFR1 060143Z 07007KT 27/17 A30 RMK A01 T02700167  RH  053%=      5-min Rain = 0
KFR1 060144Z 08007KT 27/17 A30 RMK A01 T02700168  RH  053%=      5-min Rain = 0
KFR1 060145Z 07008KT 27/17 A2999 RMK A01 T02700169  RH  054%=      5-min Rain = 0
KFR1 060146Z 07007KT 27/17 A2999 RMK A01 T02700169  RH  054%=      5-min Rain = 0
KFR1 060147Z 07008KT 27/17 A2999 RMK A01 T02700169  RH  054%=      5-min Rain = 0
KFR1 060148Z 07009KT 27/17 A2999 RMK A01 T02700169  RH  054%=      5-min Rain = 0
KFR1 060149Z 07011KT 27/17 A2999 RMK A01 T02700169  RH  054%=      5-min Rain = 0
KFR1 060150Z 07009KT 27/17 A2999 RMK A01 T02700169  RH  054%=      5-min Rain = 0
KFR1 060151Z 07009KT 27/17 A2999 RMK A01 T02700170  RH  054%=      5-min Rain = 0
KFR1 060152Z 07009KT 27/17 A2999 RMK A01 T02690170  RH  054%=      5-min Rain = 0
KFR1 060153Z 07009KT 27/17 A2999 RMK A01 T02690170  RH  055%=      5-min Rain = 0
KFR1 060154Z 07009KT 27/17 A2999 RMK A01 T02680171  RH  055%=      5-min Rain = 0
KFR1 060155Z 07009KT 27/17 A2999 RMK A01 T02680170  RH  055%=      5-min Rain = 0
KFR1 060156Z 07010KT 27/17 A2999 RMK A01 T02680171  RH  055%=      5-min Rain = 0
KFR1 060157Z 07009KT 27/17 A2999 RMK A01 T02680170  RH  055%=      5-min Rain = 0
KFR1 060158Z 07010KT 27/17 A2999 RMK A01 T02680171  RH  055%=      5-min Rain = 0
KFR1 060159Z 07009KT 27/17 A2999 RMK A01 T02680171  RH  055%=      5-min Rain = 0
KFR1 060200Z 07008KT 27/17 A2999 RMK A01 T02680172  RH  056%=      5-min Rain = 0
KFR1 060201Z 08009KT 27/17 A2999 RMK A01 T02670172  RH  056%=      5-min Rain = 0
KFR1 060202Z 08008KT 27/17 A2999 RMK A01 T02670172  RH  056%=      5-min Rain = 0
KFR1 060203Z 08007KT 27/17 A2999 RMK A01 T02670172  RH  056%=      5-min Rain = 0
KFR1 060204Z 08006KT 27/17 A2999 RMK A01 T02660172  RH  056%=      5-min Rain = 0
KFR1 060205Z 08006KT 27/17 A2999 RMK A01 T02650173  RH  057%=      5-min Rain = 0
KFR1 060206Z 08006KT 27/17 A2999 RMK A01 T02650172  RH  057%=      5-min Rain = 0
KFR1 060207Z 08007KT 27/17 A2999 RMK A01 T02650172  RH  057%=      5-min Rain = 0
KFR1 060208Z 08006KT 27/17 A2999 RMK A01 T02650173  RH  057%=      5-min Rain = 0
KFR1 060209Z 08005KT 26/17 A2999 RMK A01 T02640172  RH  057%=      5-min Rain = 0
KFR1 060210Z 08008KT 26/17 A2999 RMK A01 T02640172  RH  057%=      5-min Rain = 0
KFR1 060211Z 08006KT 26/17 A2999 RMK A01 T02640173  RH  057%=      5-min Rain = 0
KFR1 060212Z 08007KT 26/17 A2999 RMK A01 T02640174  RH  058%=      5-min Rain = 0
KFR1 060213Z 08007KT 26/17 A2999 RMK A01 T02630173  RH  058%=      5-min Rain = 0
KFR1 060214Z 08008KT 26/17 A2999 RMK A01 T02630174  RH  058%=      5-min Rain = 0
KFR1 060215Z 07008KT 26/17 A2999 RMK A01 T02630174  RH  058%=      5-min Rain = 0
KFR1 060216Z 08009KT 26/17 A2999 RMK A01 T02630174  RH  058%=      5-min Rain = 0
KFR1 060217Z 07008KT 26/17 A2999 RMK A01 T02630174  RH  058%=      5-min Rain = 0
KFR1 060218Z 07007KT 26/17 A2999 RMK A01 T02630174  RH  058%=      5-min Rain = 0
KFR1 060219Z 07008KT 26/17 A2999 RMK A01 T02620174  RH  058%=      5-min Rain = 0
KFR1 060220Z 07008KT 26/17 A2999 RMK A01 T02630174  RH  058%=      5-min Rain = 0
KFR1 060221Z 07009KT 26/17 A2999 RMK A01 T02620173  RH  058%=      5-min Rain = 0
KFR1 060222Z 07009KT 26/17 A2999 RMK A01 T02620173  RH  058%=      5-min Rain = 0
KFR1 060223Z 07008KT 26/17 A2999 RMK A01 T02620174  RH  058%=      5-min Rain = 0
KFR1 060224Z 07009KT 26/17 A2999 RMK A01 T02610174  RH  059%=      5-min Rain = 0
KFR1 060225Z 08008KT 26/17 A2999 RMK A01 T02610174  RH  059%=      5-min Rain = 0
KFR1 060226Z 08008KT 26/17 A2999 RMK A01 T02610174  RH  059%=      5-min Rain = 0
KFR1 060227Z 08008KT 26/17 A2999 RMK A01 T02600174  RH  059%=      5-min Rain = 0
KFR1 060228Z 08009KT 26/18 A2999 RMK A01 T02600175  RH  059%=      5-min Rain = 0
KFR1 060229Z 08007KT 26/18 A2999 RMK A01 T02600175  RH  060%=      5-min Rain = 0
KFR1 060230Z 08007KT 26/18 A2999 RMK A01 T02590175  RH  060%=      5-min Rain = 0
KFR1 060231Z 08007KT 26/18 A2999 RMK A01 T02580175  RH  060%=      5-min Rain = 0
KFR1 060232Z 09008KT 26/18 A2999 RMK A01 T02580176  RH  060%=      5-min Rain = 0
KFR1 060233Z 08008KT 26/18 A2999 RMK A01 T02580175  RH  060%=      5-min Rain = 0
KFR1 060234Z 08007KT 26/18 A2999 RMK A01 T02580176  RH  061%=      5-min Rain = 0
KFR1 060235Z 08008KT 26/18 A2999 RMK A01 T02570176  RH  061%=      5-min Rain = 0
KFR1 060236Z 08007KT 26/18 A2999 RMK A01 T02570175  RH  061%=      5-min Rain = 0
KFR1 060237Z 08008KT 26/18 A2999 RMK A01 T02570176  RH  061%=      5-min Rain = 0
KFR1 060238Z 08008KT 26/18 A2999 RMK A01 T02570176  RH  061%=      5-min Rain = 0
KFR1 060239Z 08008KT 26/18 A2999 RMK A01 T02570177  RH  061%=      5-min Rain = 0
KFR1 060240Z 08008KT 26/18 A2999 RMK A01 T02560177  RH  061%=      5-min Rain = 0
KFR1 060241Z 08008KT 26/18 A2999 RMK A01 T02560176  RH  061%=      5-min Rain = 0
KFR1 060242Z 08008KT 26/18 A2999 RMK A01 T02560176  RH  061%=      5-min Rain = 0
KFR1 060243Z 08008KT 26/18 A2999 RMK A01 T02560177  RH  062%=      5-min Rain = 0
KFR1 060244Z 08008KT 26/18 A2999 RMK A01 T02550178  RH  062%=      5-min Rain = 0
KFR1 060245Z 08008KT 26/18 A2999 RMK A01 T02550177  RH  062%=      5-min Rain = 0
KFR1 060246Z 08009KT 26/18 A2999 RMK A01 T02550177  RH  062%=      5-min Rain = 0
KFR1 060247Z 08009KT 26/18 A2999 RMK A01 T02550176  RH  062%=      5-min Rain = 0
KFR1 060248Z 08008KT 26/18 A2999 RMK A01 T02550177  RH  062%=      5-min Rain = 0
KFR1 060249Z 08008KT 26/18 A2999 RMK A01 T02550178  RH  062%=      5-min Rain = 0
KFR1 060250Z 07008KT 26/18 A2999 RMK A01 T02550178  RH  062%=      5-min Rain = 0
KFR1 060251Z 08009KT 26/18 A2999 RMK A01 T02550177  RH  062%=      5-min Rain = 0
KFR1 060252Z 08008KT 26/18 A2999 RMK A01 T02550178  RH  062%=      5-min Rain = 0
KFR1 060253Z 08009KT 25/18 A2999 RMK A01 T02540178  RH  063%=      5-min Rain = 0
KFR1 060254Z 08009KT 25/18 A2999 RMK A01 T02540178  RH  063%=      5-min Rain = 0
KFR1 060255Z 08008KT 25/18 A30 RMK A01 T02540179  RH  063%=      5-min Rain = 0
KFR1 060256Z 08009KT 25/18 A30 RMK A01 T02540179  RH  063%=      5-min Rain = 0
KFR1 060257Z 08009KT 25/18 A30 RMK A01 T02540179  RH  063%=      5-min Rain = 0
KFR1 060258Z 08008KT 25/18 A30 RMK A01 T02540179  RH  063%=      5-min Rain = 0
KFR1 060259Z 08009KT 25/18 A30 RMK A01 T02540178  RH  063%=      5-min Rain = 0
KFR1 060300Z 08008KT 25/18 A30 RMK A01 T02540179  RH  063%=      5-min Rain = 0
KFR1 060301Z 08009KT 25/18 A30 RMK A01 T02530179  RH  063%=      5-min Rain = 0
KFR1 060302Z 08008KT 25/18 A30 RMK A01 T02530179  RH  063%=      5-min Rain = 0
KFR1 060303Z 08008KT 25/18 A30 RMK A01 T02530179  RH  063%=      5-min Rain = 0
KFR1 060304Z 08008KT 25/18 A30 RMK A01 T02530178  RH  063%=      5-min Rain = 0
KFR1 060305Z 08008KT 25/18 A30 RMK A01 T02530179  RH  063%=      5-min Rain = 0
KFR1 060306Z 08008KT 25/18 A30 RMK A01 T02540180  RH  064%=      5-min Rain = 0
KFR1 060307Z 08008KT 25/18 A30 RMK A01 T02530180  RH  064%=      5-min Rain = 0
KFR1 060308Z 08009KT 25/18 A30 RMK A01 T02530179  RH  064%=      5-min Rain = 0
KFR1 060309Z 08008KT 25/18 A30 RMK A01 T02530179  RH  064%=      5-min Rain = 0
KFR1 060310Z 08007KT 25/18 A30 RMK A01 T02530180  RH  064%=      5-min Rain = 0
KFR1 060311Z 08007KT 25/18 A30 RMK A01 T02520180  RH  064%=      5-min Rain = 0
KFR1 060312Z 08008KT 25/18 A30 RMK A01 T02520179  RH  064%=      5-min Rain = 0
KFR1 060313Z 08008KT 25/18 A3001 RMK A01 T02520179  RH  064%=      5-min Rain = 0
KFR1 060314Z 08007KT 25/18 A3001 RMK A01 T02520180  RH  064%=      5-min Rain = 0
KFR1 060315Z 08007KT 25/18 A3001 RMK A01 T02520180  RH  064%=      5-min Rain = 0
KFR1 060316Z 08007KT 25/18 A3001 RMK A01 T02520180  RH  065%=      5-min Rain = 0
KFR1 060317Z 08007KT 25/18 A3001 RMK A01 T02510180  RH  065%=      5-min Rain = 0
KFR1 060318Z 08007KT 25/18 A3001 RMK A01 T02510180  RH  065%=      5-min Rain = 0
KFR1 060319Z 08007KT 25/18 A3001 RMK A01 T02510180  RH  065%=      5-min Rain = 0
KFR1 060320Z 09007KT 25/18 A3001 RMK A01 T02510181  RH  065%=      5-min Rain = 0
KFR1 060321Z 09007KT 25/18 A3001 RMK A01 T02510180  RH  065%=      5-min Rain = 0
KFR1 060322Z 09007KT 25/18 A3001 RMK A01 T02510181  RH  065%=      5-min Rain = 0
KFR1 060323Z 09008KT 25/18 A3001 RMK A01 T02500180  RH  065%=      5-min Rain = 0
KFR1 060324Z 09008KT 25/18 A3001 RMK A01 T02500180  RH  065%=      5-min Rain = 0
KFR1 060325Z 09007KT 25/18 A3001 RMK A01 T02500180  RH  065%=      5-min Rain = 0
KFR1 060326Z 09008KT 25/18 A3001 RMK A01 T02500180  RH  065%=      5-min Rain = 0
KFR1 060327Z 09007KT 25/18 A3001 RMK A01 T02500179  RH  065%=      5-min Rain = 0
KFR1 060328Z 09009KT 25/18 A3001 RMK A01 T02500179  RH  065%=      5-min Rain = 0
KFR1 060329Z 09008KT 25/18 A3001 RMK A01 T02500179  RH  064%=      5-min Rain = 0
KFR1 060330Z 09007KT 25/18 A3001 RMK A01 T02500179  RH  065%=      5-min Rain = 0
KFR1 060331Z 09007KT 25/18 A3001 RMK A01 T02500179  RH  065%=      5-min Rain = 0
KFR1 060332Z 09007KT 25/18 A3001 RMK A01 T02500179  RH  065%=      5-min Rain = 0
KFR1 060333Z 09007KT 25/18 A3001 RMK A01 T02500179  RH  065%=      5-min Rain = 0
KFR1 060334Z 10007KT 25/18 A3001 RMK A01 T02500178  RH  065%=      5-min Rain = 0
KFR1 060335Z 09007KT 25/18 A3001 RMK A01 T02500178  RH  064%=      5-min Rain = 0
KFR1 060336Z 09007KT 25/18 A3001 RMK A01 T02500178  RH  064%=      5-min Rain = 0
KFR1 060337Z 09008KT 25/18 A3001 RMK A01 T02500177  RH  064%=      5-min Rain = 0
KFR1 060338Z 09008KT 25/18 A3002 RMK A01 T02510178  RH  064%=      5-min Rain = 0
KFR1 060339Z 09007KT 25/18 A3002 RMK A01 T02500178  RH  064%=      5-min Rain = 0
KFR1 060340Z 09006KT 25/18 A3002 RMK A01 T02510178  RH  064%=      5-min Rain = 0
KFR1 060341Z 09007KT 25/18 A3002 RMK A01 T02500178  RH  064%=      5-min Rain = 0
KFR1 060342Z 09008KT 25/18 A3002 RMK A01 T02500178  RH  064%=      5-min Rain = 0
KFR1 060343Z 09007KT 25/18 A3002 RMK A01 T02500178  RH  064%=      5-min Rain = 0
KFR1 060344Z 08007KT 25/18 A3002 RMK A01 T02500178  RH  064%=      5-min Rain = 0
KFR1 060345Z 08008KT 25/18 A3002 RMK A01 T02500178  RH  064%=      5-min Rain = 0
KFR1 060346Z 08008KT 25/18 A3002 RMK A01 T02490179  RH  065%=      5-min Rain = 0
KFR1 060347Z 07008KT 25/18 A3002 RMK A01 T02490178  RH  065%=      5-min Rain = 0
KFR1 060348Z 07007KT 25/18 A3003 RMK A01 T02490178  RH  065%=      5-min Rain = 0
KFR1 060349Z 07007KT 25/18 A3003 RMK A01 T02490178  RH  065%=      5-min Rain = 0
KFR1 060350Z 07008KT 25/18 A3003 RMK A01 T02490178  RH  065%=      5-min Rain = 0
KFR1 060351Z 07008KT 25/18 A3003 RMK A01 T02490178  RH  065%=      5-min Rain = 0
KFR1 060352Z 06008KT 25/18 A3003 RMK A01 T02490179  RH  065%=      5-min Rain = 0
KFR1 060353Z 06008KT 25/18 A3003 RMK A01 T02480179  RH  065%=      5-min Rain = 0
KFR1 060354Z 06008KT 25/18 A3003 RMK A01 T02480178  RH  065%=      5-min Rain = 0
KFR1 060355Z 06007KT 25/18 A3003 RMK A01 T02480178  RH  065%=      5-min Rain = 0
KFR1 060356Z 06008KT 25/18 A3003 RMK A01 T02480179  RH  065%=      5-min Rain = 0
KFR1 060357Z 06008KT 25/18 A3003 RMK A01 T02470179  RH  066%=      5-min Rain = 0
KFR1 060358Z 05006KT 25/18 A3003 RMK A01 T02470178  RH  066%=      5-min Rain = 0
KFR1 060359Z 06007KT 25/18 A3003 RMK A01 T02470179  RH  066%=      5-min Rain = 0
KFR1 060400Z 06008KT 25/18 A3003 RMK A01 T02470179  RH  066%=      5-min Rain = 0
KFR1 060401Z 06008KT 25/18 A3003 RMK A01 T02460179  RH  066%=      5-min Rain = 0
KFR1 060402Z 06006KT 25/18 A3003 RMK A01 T02460180  RH  066%=      5-min Rain = 0
KFR1 060403Z 06008KT 25/18 A3003 RMK A01 T02460179  RH  066%=      5-min Rain = 0
KFR1 060404Z 06008KT 25/18 A3003 RMK A01 T02460179  RH  066%=      5-min Rain = 0
KFR1 060405Z 06009KT 25/18 A3003 RMK A01 T02460179  RH  066%=      5-min Rain = 0
KFR1 060406Z 06009KT 25/18 A3003 RMK A01 T02460179  RH  066%=      5-min Rain = 0
KFR1 060407Z 07007KT 25/18 A3003 RMK A01 T02460179  RH  066%=      5-min Rain = 0
KFR1 060408Z 06007KT 25/18 A3003 RMK A01 T02460179  RH  066%=      5-min Rain = 0
KFR1 060409Z 06008KT 25/18 A3004 RMK A01 T02460179  RH  066%=      5-min Rain = 0
KFR1 060410Z 07009KT 25/18 A3003 RMK A01 T02460179  RH  066%=      5-min Rain = 0
KFR1 060411Z 07008KT 25/18 A3004 RMK A01 T02460178  RH  066%=      5-min Rain = 0
KFR1 060412Z 07007KT 25/18 A3004 RMK A01 T02470179  RH  066%=      5-min Rain = 0
KFR1 060413Z 08007KT 25/18 A3004 RMK A01 T02460179  RH  066%=      5-min Rain = 0
KFR1 060414Z 07007KT 25/18 A3004 RMK A01 T02460180  RH  067%=      5-min Rain = 0
KFR1 060415Z 07008KT 25/18 A3004 RMK A01 T02450179  RH  067%=      5-min Rain = 0
KFR1 060416Z 07008KT 25/18 A3004 RMK A01 T02450179  RH  066%=      5-min Rain = 0
KFR1 060417Z 08008KT 25/18 A3004 RMK A01 T02450178  RH  066%=      5-min Rain = 0
KFR1 060418Z 08008KT 25/18 A3004 RMK A01 T02460178  RH  066%=      5-min Rain = 0
KFR1 060419Z 08008KT 25/18 A3004 RMK A01 T02460178  RH  066%=      5-min Rain = 0
KFR1 060420Z 08009KT 25/18 A3004 RMK A01 T02460178  RH  066%=      5-min Rain = 0
KFR1 060421Z 08009KT 25/18 A3004 RMK A01 T02460179  RH  066%=      5-min Rain = 0
KFR1 060422Z 08009KT 25/18 A3004 RMK A01 T02460179  RH  067%=      5-min Rain = 0
KFR1 060423Z 08009KT 25/18 A3004 RMK A01 T02460180  RH  067%=      5-min Rain = 0
KFR1 060424Z 08008KT 25/18 A3004 RMK A01 T02450179  RH  067%=      5-min Rain = 0
KFR1 060425Z 08009KT 25/18 A3004 RMK A01 T02450179  RH  067%=      5-min Rain = 0
KFR1 060426Z 08008KT 25/18 A3004 RMK A01 T02450179  RH  067%=      5-min Rain = 0
KFR1 060427Z 08009KT 25/18 A3004 RMK A01 T02450179  RH  067%=      5-min Rain = 0
KFR1 060428Z 08008KT 25/18 A3004 RMK A01 T02450179  RH  067%=      5-min Rain = 0
KFR1 060429Z 08008KT 25/18 A3004 RMK A01 T02450179  RH  066%=      5-min Rain = 0
KFR1 060430Z 08008KT 25/18 A3004 RMK A01 T02450179  RH  067%=      5-min Rain = 0
KFR1 060431Z 08007KT 25/18 A3004 RMK A01 T02450179  RH  067%=      5-min Rain = 0
KFR1 060432Z 07006KT 25/18 A3004 RMK A01 T02450180  RH  067%=      5-min Rain = 0
KFR1 060433Z 07007KT 25/18 A3004 RMK A01 T02450180  RH  067%=      5-min Rain = 0
KFR1 060434Z 08008KT 25/18 A3004 RMK A01 T02450179  RH  067%=      5-min Rain = 0
KFR1 060435Z 08009KT 25/18 A3004 RMK A01 T02450179  RH  067%=      5-min Rain = 0
KFR1 060436Z 08008KT 25/18 A3004 RMK A01 T02450179  RH  067%=      5-min Rain = 0
KFR1 060437Z 08009KT 25/18 A3004 RMK A01 T02450179  RH  067%=      5-min Rain = 0
KFR1 060438Z 07007KT 25/18 A3004 RMK A01 T02450179  RH  067%=      5-min Rain = 0
KFR1 060439Z 08008KT 25/18 A3004 RMK A01 T02450179  RH  067%=      5-min Rain = 0
KFR1 060440Z 08008KT 25/18 A3004 RMK A01 T02450179  RH  067%=      5-min Rain = 0
KFR1 060441Z 08008KT 25/18 A3004 RMK A01 T02450179  RH  066%=      5-min Rain = 0
KFR1 060442Z 08008KT 25/18 A3004 RMK A01 T02450179  RH  066%=      5-min Rain = 0
KFR1 060443Z 08008KT 25/18 A3004 RMK A01 T02460179  RH  067%=      5-min Rain = 0
KFR1 060444Z 08009KT 25/18 A3004 RMK A01 T02460179  RH  067%=      5-min Rain = 0
KFR1 060445Z 08008KT 25/18 A3004 RMK A01 T02460179  RH  067%=      5-min Rain = 0
KFR1 060446Z 08008KT 25/18 A3004 RMK A01 T02450180  RH  067%=      5-min Rain = 0
KFR1 060447Z 08008KT 25/18 A3004 RMK A01 T02450180  RH  067%=      5-min Rain = 0
KFR1 060448Z 08007KT 25/18 A3004 RMK A01 T02450180  RH  067%=      5-min Rain = 0
KFR1 060449Z 08008KT 25/18 A3004 RMK A01 T02450180  RH  067%=      5-min Rain = 0
KFR1 060450Z 08008KT 25/18 A3004 RMK A01 T02450180  RH  067%=      5-min Rain = 0
KFR1 060451Z 08008KT 25/18 A3004 RMK A01 T02450180  RH  067%=      5-min Rain = 0
KFR1 060452Z 08007KT 25/18 A3004 RMK A01 T02450180  RH  067%=      5-min Rain = 0
KFR1 060453Z 08009KT 25/18 A3004 RMK A01 T02450180  RH  067%=      5-min Rain = 0
KFR1 060454Z 07008KT 25/18 A3004 RMK A01 T02450180  RH  067%=      5-min Rain = 0
KFR1 060455Z 08006KT 25/18 A3004 RMK A01 T02450180  RH  067%=      5-min Rain = 0
KFR1 060456Z 07008KT 24/18 A3004 RMK A01 T02440180  RH  068%=      5-min Rain = 0
KFR1 060457Z 08009KT 24/18 A3004 RMK A01 T02440180  RH  068%=      5-min Rain = 0
KFR1 060458Z 08008KT 24/18 A3004 RMK A01 T02440180  RH  068%=      5-min Rain = 0
KFR1 060459Z 07007KT 24/18 A3004 RMK A01 T02440180  RH  068%=      5-min Rain = 0

Page generated in 0.1317 seconds.